Wetterdaten: Sonntag, 13.12.2020
Datum Zeit Temp. Aussen Temp. o. S. Temp +5cm Feuchte Auss Luftdruck Regen Sonnenschein Regendauer Solar Windben Empfang
13.12.2020 00:00 7,8 C 7,2 C 6,6 C 100 % 1004,7 hPa 0,0 l/m 0 min 2 min 0 W/m 3,2 km/h (1 Bft) 100,00 %
13.12.2020 00:02 7,8 C 7,2 C 6,6 C 100 % 1004,8 hPa 0,0 l/m 0 min 2 min 0 W/m 19,3 km/h (3 Bft) 97,67 %
13.12.2020 00:04 7,8 C 7,2 C 6,6 C 100 % 1004,8 hPa 0,0 l/m 0 min 0 min 0 W/m 3,2 km/h (1 Bft) 100,00 %
13.12.2020 00:08 7,8 C 7,2 C 6,6 C 100 % 1004,8 hPa 0,0 l/m 0 min 0 min 0 W/m 0,0 km/h (0 Bft) 100,00 %
13.12.2020 00:10 7,8 C 7,2 C 6,6 C 100 % 1004,8 hPa 0,0 l/m 0 min 0 min 0 W/m 0,0 km/h (0 Bft) 100,00 %
13.12.2020 00:12 7,8 C 7,2 C 6,6 C 100 % 1004,8 hPa 0,0 l/m 0 min 0 min 0 W/m 0,0 km/h (0 Bft) 100,00 %
13.12.2020 00:15 7,8 C 7,2 C 6,6 C 100 % 1004,8 hPa 0,0 l/m 0 min 0 min 0 W/m 12,9 km/h (3 Bft) 100,00 %
13.12.2020 00:20 7,8 C 7,2 C 6,6 C 100 % 1004,9 hPa 0,0 l/m 0 min 0 min 0 W/m 12,9 km/h (3 Bft) 100,00 %
13.12.2020 00:25 7,8 C 7,2 C 6,6 C 100 % 1004,9 hPa 0,0 l/m 0 min 0 min 0 W/m 12,9 km/h (3 Bft) 100,00 %
13.12.2020 00:30 7,8 C 7,2 C 6,6 C 100 % 1004,9 hPa 0,0 l/m 0 min 0 min 0 W/m 6,4 km/h (2 Bft) 100,00 %
13.12.2020 00:35 7,7 C 7,2 C 6,6 C 100 % 1005,1 hPa 0,0 l/m 0 min 0 min 0 W/m 0,0 km/h (0 Bft) 98,25 %
13.12.2020 00:40 7,7 C 6,7 C 6,6 C 100 % 1005,1 hPa 0,0 l/m 0 min 0 min 0 W/m 0,0 km/h (0 Bft) 98,25 %
13.12.2020 00:45 7,7 C 7,2 C 6,6 C 100 % 1005,2 hPa 0,0 l/m 0 min 0 min 0 W/m 0,0 km/h (0 Bft) 99,12 %
13.12.2020 00:50 7,7 C 7,2 C 6,6 C 100 % 1005,2 hPa 0,0 l/m 0 min 0 min 0 W/m 3,2 km/h (1 Bft) 98,25 %
13.12.2020 00:55 7,7 C 7,2 C 6,6 C 100 % 1005,2 hPa 0,0 l/m 0 min 0 min 0 W/m 0,0 km/h (0 Bft) 97,37 %
13.12.2020 01:00 7,7 C 7,2 C 6,6 C 100 % 1005,2 hPa 0,0 l/m 0 min 0 min 0 W/m 0,0 km/h (0 Bft) 99,12 %
13.12.2020 01:05 7,7 C 7,2 C 6,6 C 100 % 1005,2 hPa 0,0 l/m 0 min 0 min 0 W/m 6,4 km/h (2 Bft) 99,12 %
13.12.2020 01:10 7,7 C 7,2 C 6,6 C 100 % 1005,3 hPa 0,0 l/m 0 min 0 min 0 W/m 0,0 km/h (0 Bft) 97,37 %
13.12.2020 01:15 7,8 C 7,2 C 6,6 C 100 % 1005,3 hPa 0,0 l/m 0 min 0 min 0 W/m 0,0 km/h (0 Bft) 98,25 %
13.12.2020 01:40 7,8 C 7,2 C 6,6 C 100 % 1005,6 hPa 0,0 l/m 0 min 0 min 0 W/m 0,0 km/h (0 Bft) 100,00 %
13.12.2020 01:42 7,8 C 7,2 C 6,6 C 100 % 1005,5 hPa 0,0 l/m 0 min 0 min 0 W/m 0,0 km/h (0 Bft) 100,00 %
13.12.2020 01:44 7,8 C 7,2 C 6,6 C 100 % 1005,6 hPa 0,0 l/m 0 min 0 min 0 W/m 0,0 km/h (0 Bft) 97,83 %
13.12.2020 01:46 7,8 C 7,2 C 6,6 C 100 % 1005,6 hPa 0,0 l/m 0 min 0 min 0 W/m 0,0 km/h (0 Bft) 100,00 %
13.12.2020 01:48 7,8 C 7,2 C 6,6 C 100 % 1005,6 hPa 0,0 l/m 0 min 0 min 0 W/m 0,0 km/h (0 Bft) 100,00 %
13.12.2020 01:50 7,8 C 7,2 C 6,6 C 100 % 1005,7 hPa 0,0 l/m 0 min 0 min 0 W/m 0,0 km/h (0 Bft) 100,00 %
13.12.2020 01:52 7,8 C 7,2 C 6,6 C 100 % 1005,7 hPa 0,0 l/m 0 min 0 min 0 W/m 0,0 km/h (0 Bft) 100,00 %
13.12.2020 01:54 7,8 C 7,2 C 6,6 C 100 % 1005,8 hPa 0,0 l/m 0 min 0 min 0 W/m 0,0 km/h (0 Bft) 100,00 %
13.12.2020 01:56 7,8 C 7,2 C 6,6 C 100 % 1005,8 hPa 0,0 l/m 0 min 0 min 0 W/m 0,0 km/h (0 Bft) 97,87 %
13.12.2020 01:58 7,8 C 7,2 C 6,6 C 100 % 1005,8 hPa 0,0 l/m 0 min 0 min 0 W/m 3,2 km/h (1 Bft) 100,00 %
13.12.2020 02:00 7,8 C 7,2 C 6,6 C 100 % 1005,9 hPa 0,0 l/m 0 min 0 min 0 W/m 0,0 km/h (0 Bft) 100,00 %
13.12.2020 02:02 7,8 C 7,2 C 6,6 C 100 % 1005,9 hPa 0,0 l/m 0 min 0 min 0 W/m 0,0 km/h (0 Bft) 97,87 %
13.12.2020 02:04 7,8 C 7,2 C 6,6 C 100 % 1005,9 hPa 0,0 l/m 0 min 0 min 0 W/m 0,0 km/h (0 Bft) 100,00 %
13.12.2020 02:06 7,8 C 7,2 C 6,6 C 100 % 1005,9 hPa 0,0 l/m 0 min 0 min 0 W/m 0,0 km/h (0 Bft) 100,00 %
13.12.2020 02:08 7,8 C 7,2 C 6,6 C 100 % 1005,9 hPa 0,0 l/m 0 min 0 min 0 W/m 6,4 km/h (2 Bft) 100,00 %
13.12.2020 02:10 7,8 C 7,2 C 6,6 C 100 % 1005,9 hPa 0,0 l/m 0 min 0 min 0 W/m 3,2 km/h (1 Bft) 100,00 %
13.12.2020 02:12 7,8 C 7,2 C 6,6 C 100 % 1006,0 hPa 0,0 l/m 0 min 0 min 0 W/m 3,2 km/h (1 Bft) 100,00 %
13.12.2020 02:14 7,8 C 7,2 C 6,6 C 100 % 1005,9 hPa 0,0 l/m 0 min 0 min 0 W/m 0,0 km/h (0 Bft) 100,00 %
13.12.2020 02:16 7,8 C 7,2 C 6,6 C 100 % 1006,0 hPa 0,0 l/m 0 min 0 min 0 W/m 6,4 km/h (2 Bft) 100,00 %
13.12.2020 02:18 7,8 C 7,2 C 6,6 C 100 % 1005,9 hPa 0,0 l/m 0 min 0 min 0 W/m 0,0 km/h (0 Bft) 100,00 %
13.12.2020 02:20 7,8 C 7,2 C 6,6 C 100 % 1005,9 hPa 0,0 l/m 0 min 0 min 0 W/m 3,2 km/h (1 Bft) 100,00 %
13.12.2020 02:22 7,8 C 7,2 C 6,6 C 100 % 1005,9 hPa 0,0 l/m 0 min 0 min 0 W/m 0,0 km/h (0 Bft) 100,00 %
13.12.2020 02:24 7,8 C 7,2 C 6,6 C 100 % 1006,0 hPa 0,0 l/m 0 min 0 min 0 W/m 3,2 km/h (1 Bft) 97,83 %
13.12.2020 02:26 7,8 C 7,2 C 6,6 C 100 % 1006,0 hPa 0,0 l/m 0 min 0 min 0 W/m 6,4 km/h (2 Bft) 100,00 %
13.12.2020 02:28 7,8 C 7,2 C 6,6 C 100 % 1006,0 hPa 0,0 l/m 0 min 0 min 0 W/m 12,9 km/h (3 Bft) 97,87 %
13.12.2020 02:30 7,8 C 7,2 C 6,6 C 100 % 1006,0 hPa 0,0 l/m 0 min 0 min 0 W/m 0,0 km/h (0 Bft) 100,00 %
13.12.2020 02:32 7,8 C 7,2 C 6,6 C 100 % 1006,1 hPa 0,0 l/m 0 min 0 min 0 W/m 0,0 km/h (0 Bft) 97,87 %
13.12.2020 02:34 7,8 C 7,2 C 6,6 C 100 % 1006,1 hPa 0,0 l/m 0 min 0 min 0 W/m 0,0 km/h (0 Bft) 100,00 %
13.12.2020 02:36 7,8 C 7,2 C 6,6 C 100 % 1006,1 hPa 0,0 l/m 0 min 0 min 0 W/m 0,0 km/h (0 Bft) 100,00 %
13.12.2020 02:38 7,8 C 7,2 C 6,6 C 100 % 1006,2 hPa 0,0 l/m 0 min 0 min 0 W/m 0,0 km/h (0 Bft) 100,00 %
13.12.2020 02:40 7,8 C 7,2 C 6,6 C 100 % 1006,2 hPa 0,0 l/m 0 min 0 min 0 W/m 6,4 km/h (2 Bft) 97,87 %
13.12.2020 02:42 7,8 C 7,2 C 6,6 C 100 % 1006,3 hPa 0,0 l/m 0 min 0 min 0 W/m 3,2 km/h (1 Bft) 100,00 %
13.12.2020 02:44 7,8 C 7,2 C 6,6 C 100 % 1006,3 hPa 0,0 l/m 0 min 0 min 0 W/m 0,0 km/h (0 Bft) 100,00 %
13.12.2020 02:46 7,8 C 7,2 C 6,6 C 100 % 1006,4 hPa 0,0 l/m 0 min 0 min 0 W/m 0,0 km/h (0 Bft) 100,00 %
13.12.2020 02:48 7,8 C 7,2 C 6,6 C 100 % 1006,4 hPa 0,0 l/m 0 min 0 min 0 W/m 0,0 km/h (0 Bft) 100,00 %
13.12.2020 02:50 7,8 C 7,2 C 6,6 C 100 % 1006,4 hPa 0,0 l/m 0 min 0 min 0 W/m 0,0 km/h (0 Bft) 100,00 %
13.12.2020 02:52 7,8 C 7,2 C 6,6 C 100 % 1006,3 hPa 0,0 l/m 0 min 0 min 0 W/m 3,2 km/h (1 Bft) 97,87 %
13.12.2020 02:54 7,8 C 7,2 C 6,6 C 100 % 1006,4 hPa 0,0 l/m 0 min 0 min 0 W/m 0,0 km/h (0 Bft) 100,00 %
13.12.2020 02:56 7,8 C 7,2 C 6,6 C 100 % 1006,4 hPa 0,0 l/m 0 min 0 min 0 W/m 0,0 km/h (0 Bft) 100,00 %
13.12.2020 02:58 7,8 C 7,2 C 6,6 C 100 % 1006,4 hPa 0,0 l/m 0 min 0 min 0 W/m 0,0 km/h (0 Bft) 100,00 %
13.12.2020 03:00 7,8 C 7,2 C 6,6 C 100 % 1006,4 hPa 0,0 l/m 0 min 0 min 0 W/m 0,0 km/h (0 Bft) 100,00 %
13.12.2020 03:02 7,8 C 7,2 C 6,6 C 100 % 1006,4 hPa 0,0 l/m 0 min 0 min 0 W/m 0,0 km/h (0 Bft) 100,00 %
13.12.2020 03:04 7,8 C 7,2 C 6,6 C 100 % 1006,5 hPa 0,0 l/m 0 min 0 min 0 W/m 0,0 km/h (0 Bft) 100,00 %
13.12.2020 03:06 7,8 C 7,2 C 6,6 C 100 % 1006,5 hPa 0,0 l/m 0 min 0 min 0 W/m 0,0 km/h (0 Bft) 100,00 %
13.12.2020 03:08 7,8 C 7,2 C 6,6 C 100 % 1006,5 hPa 0,0 l/m 0 min 0 min 0 W/m 0,0 km/h (0 Bft) 100,00 %
13.12.2020 03:10 7,8 C 7,2 C 6,6 C 100 % 1006,5 hPa 0,0 l/m 0 min 0 min 0 W/m 0,0 km/h (0 Bft) 100,00 %
13.12.2020 03:12 7,8 C 7,2 C 6,6 C 100 % 1006,5 hPa 0,0 l/m 0 min 0 min 0 W/m 0,0 km/h (0 Bft) 100,00 %
13.12.2020 03:14 7,8 C 7,2 C 6,6 C 100 % 1006,5 hPa 0,0 l/m 0 min 0 min 0 W/m 0,0 km/h (0 Bft) 100,00 %
13.12.2020 03:16 7,8 C 7,2 C 6,6 C 100 % 1006,6 hPa 0,0 l/m 0 min 0 min 0 W/m 0,0 km/h (0 Bft) 95,74 %
13.12.2020 03:18 7,8 C 7,2 C 6,6 C 100 % 1006,7 hPa 0,0 l/m 0 min 0 min 0 W/m 6,4 km/h (2 Bft) 100,00 %
13.12.2020 03:20 7,8 C 7,2 C 6,6 C 100 % 1006,7 hPa 0,0 l/m 0 min 0 min 0 W/m 3,2 km/h (1 Bft) 97,87 %
13.12.2020 03:22 7,7 C 7,2 C 6,6 C 100 % 1006,7 hPa 0,0 l/m 0 min 0 min 0 W/m 0,0 km/h (0 Bft) 97,87 %
13.12.2020 03:24 7,8 C 7,2 C 6,6 C 100 % 1006,8 hPa 0,0 l/m 0 min 0 min 0 W/m 12,9 km/h (3 Bft) 93,48 %
13.12.2020 03:26 7,8 C 7,2 C 6,6 C 100 % 1006,8 hPa 0,0 l/m 0 min 0 min 0 W/m 3,2 km/h (1 Bft) 95,74 %
13.12.2020 03:28 7,7 C 7,2 C 6,6 C 100 % 1006,9 hPa 0,0 l/m 0 min 0 min 0 W/m 6,4 km/h (2 Bft) 95,74 %
13.12.2020 03:30 7,8 C 7,2 C 6,6 C 100 % 1006,9 hPa 0,0 l/m 0 min 0 min 0 W/m 3,2 km/h (1 Bft) 95,74 %
13.12.2020 03:32 7,7 C 7,2 C 6,6 C 100 % 1007,0 hPa 0,0 l/m 0 min 0 min 0 W/m 6,4 km/h (2 Bft) 95,74 %
13.12.2020 03:34 7,7 C 7,2 C 6,6 C 100 % 1006,9 hPa 0,0 l/m 0 min 0 min 0 W/m 6,4 km/h (2 Bft) 95,74 %
13.12.2020 03:36 7,7 C 7,2 C 6,6 C 100 % 1007,0 hPa 0,0 l/m 0 min 0 min 0 W/m 3,2 km/h (1 Bft) 95,65 %
13.12.2020 03:38 7,7 C 7,2 C 7,2 C 100 % 1007,0 hPa 0,0 l/m 0 min 0 min 0 W/m 3,2 km/h (1 Bft) 95,74 %
13.12.2020 03:40 7,7 C 7,2 C 6,6 C 100 % 1007,0 hPa 0,0 l/m 0 min 0 min 0 W/m 6,4 km/h (2 Bft) 93,62 %
13.12.2020 03:42 7,7 C 7,2 C 6,6 C 100 % 1007,0 hPa 0,0 l/m 0 min 0 min 0 W/m 19,3 km/h (3 Bft) 95,74 %
13.12.2020 03:44 7,7 C 7,2 C 6,6 C 100 % 1007,1 hPa 0,0 l/m 0 min 0 min 0 W/m 3,2 km/h (1 Bft) 95,74 %
13.12.2020 03:46 7,8 C 7,2 C 6,6 C 100 % 1007,1 hPa 0,0 l/m 0 min 0 min 0 W/m 3,2 km/h (1 Bft) 95,74 %
13.12.2020 03:48 7,7 C 7,2 C 6,6 C 100 % 1007,1 hPa 0,0 l/m 0 min 0 min 0 W/m 0,0 km/h (0 Bft) 95,65 %
13.12.2020 03:50 7,7 C 7,2 C 6,6 C 100 % 1007,1 hPa 0,0 l/m 0 min 0 min 0 W/m 3,2 km/h (1 Bft) 93,62 %
13.12.2020 03:52 7,8 C 7,2 C 6,6 C 100 % 1007,1 hPa 0,0 l/m 0 min 0 min 0 W/m 0,0 km/h (0 Bft) 95,74 %
13.12.2020 03:54 7,7 C 7,2 C 6,6 C 100 % 1007,1 hPa 0,0 l/m 0 min 0 min 0 W/m 0,0 km/h (0 Bft) 93,62 %
13.12.2020 03:56 7,7 C 7,2 C 6,6 C 100 % 1007,1 hPa 0,0 l/m 0 min 0 min 0 W/m 0,0 km/h (0 Bft) 93,62 %
13.12.2020 03:58 7,7 C 7,2 C 6,6 C 100 % 1007,1 hPa 0,0 l/m 0 min 0 min 0 W/m 16,1 km/h (3 Bft) 93,62 %
13.12.2020 04:00 7,7 C 7,2 C 6,6 C 100 % 1007,1 hPa 0,0 l/m 0 min 0 min 0 W/m 0,0 km/h (0 Bft) 95,65 %
13.12.2020 04:02 7,7 C 7,2 C 6,6 C 100 % 1007,1 hPa 0,0 l/m 0 min 0 min 0 W/m 0,0 km/h (0 Bft) 97,87 %
13.12.2020 04:04 7,7 C 7,2 C 6,6 C 100 % 1007,1 hPa 0,0 l/m 0 min 0 min 0 W/m 0,0 km/h (0 Bft) 95,74 %
13.12.2020 04:06 7,7 C 7,2 C 6,6 C 100 % 1007,1 hPa 0,0 l/m 0 min 0 min 0 W/m 0,0 km/h (0 Bft) 97,87 %
13.12.2020 04:08 7,7 C 7,2 C 6,6 C 100 % 1007,1 hPa 0,0 l/m 0 min 0 min 0 W/m 3,2 km/h (1 Bft) 97,87 %
13.12.2020 04:10 7,7 C 7,2 C 6,6 C 100 % 1007,1 hPa 0,0 l/m 0 min 0 min 0 W/m 3,2 km/h (1 Bft) 97,83 %
13.12.2020 04:12 7,7 C 7,2 C 6,6 C 100 % 1007,2 hPa 0,0 l/m 0 min 0 min 0 W/m 0,0 km/h (0 Bft) 97,87 %
13.12.2020 04:14 7,7 C 7,2 C 6,6 C 100 % 1007,2 hPa 0,0 l/m 0 min 0 min 0 W/m 0,0 km/h (0 Bft) 97,87 %
13.12.2020 04:16 7,7 C 7,2 C 6,6 C 100 % 1007,2 hPa 0,0 l/m 0 min 0 min 0 W/m 0,0 km/h (0 Bft) 97,87 %
13.12.2020 04:18 7,7 C 7,2 C 6,6 C 100 % 1007,2 hPa 0,0 l/m 0 min 0 min 0 W/m 0,0 km/h (0 Bft) 100,00 %
13.12.2020 04:20 7,7 C 7,2 C 6,6 C 100 % 1007,2 hPa 0,0 l/m 0 min 0 min 0 W/m 0,0 km/h (0 Bft) 100,00 %
13.12.2020 04:22 7,7 C 7,2 C 6,6 C 100 % 1007,3 hPa 0,0 l/m 0 min 0 min 0 W/m 0,0 km/h (0 Bft) 100,00 %
13.12.2020 04:24 7,7 C 7,2 C 6,6 C 100 % 1007,3 hPa 0,0 l/m 0 min 0 min 0 W/m 0,0 km/h (0 Bft) 100,00 %
13.12.2020 04:26 7,7 C 7,2 C 6,6 C 100 % 1007,3 hPa 0,0 l/m 0 min 0 min 0 W/m 0,0 km/h (0 Bft) 100,00 %
13.12.2020 04:28 7,7 C 7,2 C 6,6 C 100 % 1007,4 hPa 0,0 l/m 0 min 0 min 0 W/m 3,2 km/h (1 Bft) 100,00 %
13.12.2020 04:30 7,7 C 7,2 C 6,6 C 100 % 1007,3 hPa 0,0 l/m 0 min 0 min 0 W/m 0,0 km/h (0 Bft) 100,00 %
13.12.2020 04:32 7,7 C 7,2 C 6,6 C 100 % 1007,4 hPa 0,0 l/m 0 min 0 min 0 W/m 0,0 km/h (0 Bft) 100,00 %
13.12.2020 04:34 7,7 C 7,2 C 6,6 C 100 % 1007,4 hPa 0,0 l/m 0 min 0 min 0 W/m 0,0 km/h (0 Bft) 100,00 %
13.12.2020 04:36 7,7 C 7,2 C 6,6 C 100 % 1007,4 hPa 0,0 l/m 0 min 0 min 0 W/m 3,2 km/h (1 Bft) 100,00 %
13.12.2020 04:38 7,7 C 7,2 C 6,6 C 100 % 1007,5 hPa 0,0 l/m 0 min 0 min 0 W/m 3,2 km/h (1 Bft) 100,00 %
13.12.2020 04:40 7,7 C 7,2 C 6,6 C 100 % 1007,5 hPa 0,0 l/m 0 min 0 min 0 W/m 0,0 km/h (0 Bft) 100,00 %
13.12.2020 04:42 7,7 C 7,2 C 6,6 C 100 % 1007,5 hPa 0,0 l/m 0 min 0 min 0 W/m 0,0 km/h (0 Bft) 97,87 %
13.12.2020 04:44 7,7 C 7,2 C 6,6 C 100 % 1007,5 hPa 0,0 l/m 0 min 0 min 0 W/m 3,2 km/h (1 Bft) 100,00 %
13.12.2020 04:46 7,7 C 7,2 C 6,6 C 100 % 1007,5 hPa 0,0 l/m 0 min 0 min 0 W/m 3,2 km/h (1 Bft) 100,00 %
13.12.2020 04:48 7,7 C 7,2 C 6,6 C 100 % 1007,5 hPa 0,0 l/m 0 min 0 min 0 W/m 0,0 km/h (0 Bft) 100,00 %
13.12.2020 04:50 7,7 C 7,2 C 6,6 C 100 % 1007,6 hPa 0,0 l/m 0 min 0 min 0 W/m 0,0 km/h (0 Bft) 100,00 %
13.12.2020 04:52 7,7 C 7,2 C 6,6 C 100 % 1007,6 hPa 0,0 l/m 0 min 0 min 0 W/m 6,4 km/h (2 Bft) 97,87 %
13.12.2020 04:54 7,7 C 7,2 C 7,2 C 100 % 1007,6 hPa 0,0 l/m 0 min 0 min 0 W/m 16,1 km/h (3 Bft) 100,00 %
13.12.2020 04:56 7,7 C 7,2 C 6,6 C 100 % 1007,5 hPa 0,0 l/m 0 min 0 min 0 W/m 6,4 km/h (2 Bft) 100,00 %
13.12.2020 04:58 7,7 C 7,2 C 6,6 C 100 % 1007,6 hPa 0,0 l/m 0 min 0 min 0 W/m 0,0 km/h (0 Bft) 100,00 %
13.12.2020 05:00 7,7 C 7,2 C 6,6 C 100 % 1007,6 hPa 0,0 l/m 0 min 0 min 0 W/m 0,0 km/h (0 Bft) 100,00 %
13.12.2020 05:02 7,7 C 7,2 C 6,6 C 100 % 1007,6 hPa 0,0 l/m 0 min 0 min 0 W/m 0,0 km/h (0 Bft) 100,00 %
13.12.2020 05:04 7,7 C 7,2 C 6,6 C 100 % 1007,7 hPa 0,0 l/m 0 min 0 min 0 W/m 6,4 km/h (2 Bft) 100,00 %
13.12.2020 05:06 7,7 C 7,2 C 6,6 C 100 % 1007,6 hPa 0,0 l/m 0 min 0 min 0 W/m 12,9 km/h (3 Bft) 100,00 %
13.12.2020 05:08 7,7 C 7,2 C 6,6 C 100 % 1007,6 hPa 0,0 l/m 0 min 0 min 0 W/m 3,2 km/h (1 Bft) 100,00 %
13.12.2020 05:10 7,7 C 7,2 C 6,6 C 100 % 1007,7 hPa 0,0 l/m 0 min 0 min 0 W/m 0,0 km/h (0 Bft) 100,00 %
13.12.2020 05:12 7,7 C 7,2 C 6,6 C 100 % 1007,7 hPa 0,0 l/m 0 min 0 min 0 W/m 3,2 km/h (1 Bft) 95,74 %
13.12.2020 05:14 7,7 C 7,2 C 6,6 C 100 % 1007,8 hPa 0,0 l/m 0 min 0 min 0 W/m 0,0 km/h (0 Bft) 100,00 %
13.12.2020 05:16 7,7 C 7,2 C 6,6 C 100 % 1007,8 hPa 0,0 l/m 0 min 0 min 0 W/m 3,2 km/h (1 Bft) 97,87 %
13.12.2020 05:18 7,7 C 7,2 C 6,6 C 100 % 1007,7 hPa 0,0 l/m 0 min 0 min 0 W/m 3,2 km/h (1 Bft) 97,87 %
13.12.2020 05:20 7,7 C 7,2 C 6,6 C 100 % 1007,8 hPa 0,0 l/m 0 min 0 min 0 W/m 6,4 km/h (2 Bft) 100,00 %
13.12.2020 05:22 7,7 C 7,2 C 6,6 C 100 % 1007,9 hPa 0,0 l/m 0 min 0 min 0 W/m 12,9 km/h (3 Bft) 100,00 %
13.12.2020 05:24 7,7 C 7,2 C 6,6 C 100 % 1007,9 hPa 0,0 l/m 0 min 0 min 0 W/m 6,4 km/h (2 Bft) 100,00 %
13.12.2020 05:26 7,7 C 7,2 C 6,6 C 100 % 1007,9 hPa 0,0 l/m 0 min 0 min 0 W/m 12,9 km/h (3 Bft) 97,87 %
13.12.2020 05:28 7,7 C 7,2 C 6,6 C 100 % 1007,8 hPa 0,0 l/m 0 min 0 min 0 W/m 6,4 km/h (2 Bft) 100,00 %
13.12.2020 05:30 7,7 C 7,2 C 6,6 C 100 % 1007,8 hPa 0,0 l/m 0 min 0 min 0 W/m 3,2 km/h (1 Bft) 100,00 %
13.12.2020 05:32 7,7 C 7,2 C 6,6 C 100 % 1007,9 hPa 0,0 l/m 0 min 0 min 0 W/m 0,0 km/h (0 Bft) 100,00 %
13.12.2020 05:34 7,7 C 7,2 C 6,6 C 100 % 1007,9 hPa 0,0 l/m 0 min 0 min 0 W/m 0,0 km/h (0 Bft) 100,00 %
13.12.2020 05:36 7,7 C 7,2 C 6,6 C 100 % 1007,9 hPa 0,0 l/m 0 min 0 min 0 W/m 6,4 km/h (2 Bft) 100,00 %
13.12.2020 05:38 7,6 C 7,2 C 6,6 C 100 % 1007,9 hPa 0,0 l/m 0 min 0 min 0 W/m 6,4 km/h (2 Bft) 97,87 %
13.12.2020 05:40 7,7 C 7,2 C 6,6 C 100 % 1008,0 hPa 0,0 l/m 0 min 0 min 0 W/m 6,4 km/h (2 Bft) 100,00 %
13.12.2020 05:42 7,6 C 7,2 C 6,6 C 100 % 1008,0 hPa 0,0 l/m 0 min 0 min 0 W/m 12,9 km/h (3 Bft) 100,00 %
13.12.2020 05:44 7,6 C 7,2 C 6,6 C 100 % 1008,0 hPa 0,0 l/m 0 min 0 min 0 W/m 6,4 km/h (2 Bft) 100,00 %
13.12.2020 05:46 7,6 C 7,2 C 6,6 C 100 % 1008,1 hPa 0,0 l/m 0 min 0 min 0 W/m 3,2 km/h (1 Bft) 95,65 %
13.12.2020 05:48 7,6 C 6,7 C 6,6 C 100 % 1008,1 hPa 0,0 l/m 0 min 0 min 0 W/m 3,2 km/h (1 Bft) 100,00 %
13.12.2020 05:50 7,6 C 6,7 C 6,6 C 100 % 1008,1 hPa 0,0 l/m 0 min 0 min 0 W/m 12,9 km/h (3 Bft) 100,00 %
13.12.2020 05:52 7,6 C 7,2 C 6,6 C 100 % 1008,1 hPa 0,0 l/m 0 min 0 min 0 W/m 12,9 km/h (3 Bft) 97,87 %
13.12.2020 05:54 7,6 C 7,2 C 6,6 C 100 % 1008,1 hPa 0,0 l/m 0 min 0 min 0 W/m 12,9 km/h (3 Bft) 100,00 %
13.12.2020 05:56 7,6 C 7,2 C 6,6 C 100 % 1008,1 hPa 0,0 l/m 0 min 0 min 0 W/m 0,0 km/h (0 Bft) 95,74 %
13.12.2020 05:58 7,6 C 7,2 C 6,6 C 100 % 1008,2 hPa 0,0 l/m 0 min 0 min 0 W/m 0,0 km/h (0 Bft) 100,00 %
13.12.2020 06:00 7,6 C 7,2 C 6,6 C 100 % 1008,2 hPa 0,0 l/m 0 min 0 min 0 W/m 0,0 km/h (0 Bft) 97,87 %
13.12.2020 06:02 7,6 C 7,2 C 6,6 C 100 % 1008,2 hPa 0,0 l/m 0 min 0 min 0 W/m 0,0 km/h (0 Bft) 97,87 %
13.12.2020 06:04 7,6 C 7,2 C 6,6 C 100 % 1008,2 hPa 0,0 l/m 0 min 0 min 0 W/m 3,2 km/h (1 Bft) 97,87 %
13.12.2020 06:08 7,6 C 7,2 C 6,6 C 100 % 1008,3 hPa 0,0 l/m 0 min 0 min 0 W/m 6,4 km/h (2 Bft) 97,85 %
13.12.2020 06:10 7,6 C 7,2 C 6,6 C 100 % 1008,3 hPa 0,0 l/m 0 min 0 min 0 W/m 0,0 km/h (0 Bft) 93,62 %
13.12.2020 06:12 7,6 C 7,2 C 6,6 C 100 % 1008,3 hPa 0,0 l/m 0 min 0 min 0 W/m 0,0 km/h (0 Bft) 95,74 %
13.12.2020 06:14 7,6 C 7,2 C 6,6 C 100 % 1008,3 hPa 0,0 l/m 0 min 0 min 0 W/m 6,4 km/h (2 Bft) 97,87 %
13.12.2020 06:16 7,6 C 7,2 C 6,6 C 100 % 1008,3 hPa 0,0 l/m 0 min 0 min 0 W/m 3,2 km/h (1 Bft) 91,49 %
13.12.2020 06:18 7,6 C 7,2 C 6,6 C 100 % 1008,3 hPa 0,0 l/m 0 min 0 min 0 W/m 0,0 km/h (0 Bft) 93,62 %
13.12.2020 06:20 7,6 C 7,2 C 6,6 C 100 % 1008,4 hPa 0,0 l/m 0 min 0 min 0 W/m 0,0 km/h (0 Bft) 95,65 %
13.12.2020 06:22 7,6 C 7,2 C 6,6 C 100 % 1008,4 hPa 0,0 l/m 0 min 0 min 0 W/m 3,2 km/h (1 Bft) 95,74 %
13.12.2020 06:24 7,6 C 7,2 C 6,6 C 100 % 1008,4 hPa 0,0 l/m 0 min 0 min 0 W/m 6,4 km/h (2 Bft) 95,74 %
13.12.2020 06:26 7,6 C 7,2 C 6,6 C 100 % 1008,5 hPa 0,0 l/m 0 min 0 min 0 W/m 3,2 km/h (1 Bft) 97,87 %
13.12.2020 06:28 7,6 C 6,7 C 6,6 C 100 % 1008,5 hPa 0,0 l/m 0 min 0 min 0 W/m 0,0 km/h (0 Bft) 95,74 %
13.12.2020 06:30 7,6 C 6,7 C 6,6 C 100 % 1008,6 hPa 0,0 l/m 0 min 2 min 0 W/m 12,9 km/h (3 Bft) 95,74 %
13.12.2020 06:32 7,6 C 6,7 C 6,6 C 100 % 1008,6 hPa 0,0 l/m 0 min 2 min 0 W/m 0,0 km/h (0 Bft) 89,13 %
13.12.2020 06:34 7,6 C 6,7 C 6,6 C 100 % 1008,6 hPa 0,0 l/m 0 min 2 min 0 W/m 3,2 km/h (1 Bft) 93,62 %
13.12.2020 06:36 7,6 C 6,7 C 6,6 C 100 % 1008,6 hPa 0,2 l/m 0 min 2 min 0 W/m 3,2 km/h (1 Bft) 95,74 %
13.12.2020 06:38 7,6 C 6,7 C 6,6 C 100 % 1008,6 hPa 0,0 l/m 0 min 2 min 0 W/m 6,4 km/h (2 Bft) 95,74 %
13.12.2020 06:40 7,6 C 6,7 C 6,6 C 100 % 1008,6 hPa 0,0 l/m 0 min 2 min 0 W/m 12,9 km/h (3 Bft) 95,74 %
13.12.2020 06:42 7,6 C 6,7 C 6,6 C 100 % 1008,7 hPa 0,0 l/m 0 min 2 min 0 W/m 6,4 km/h (2 Bft) 95,74 %
13.12.2020 06:44 7,6 C 6,7 C 6,6 C 100 % 1008,7 hPa 0,0 l/m 0 min 0 min 0 W/m 12,9 km/h (3 Bft) 95,65 %
13.12.2020 06:46 7,6 C 6,7 C 6,6 C 100 % 1008,7 hPa 0,0 l/m 0 min 0 min 0 W/m 0,0 km/h (0 Bft) 95,74 %
13.12.2020 06:48 7,6 C 6,7 C 6,6 C 100 % 1008,7 hPa 0,0 l/m 0 min 0 min 0 W/m 0,0 km/h (0 Bft) 95,74 %
13.12.2020 06:50 7,6 C 6,7 C 6,6 C 100 % 1008,7 hPa 0,0 l/m 0 min 0 min 0 W/m 6,4 km/h (2 Bft) 97,87 %
13.12.2020 06:52 7,6 C 6,7 C 6,6 C 100 % 1008,7 hPa 0,2 l/m 0 min 0 min 0 W/m 6,4 km/h (2 Bft) 95,74 %
13.12.2020 06:54 7,6 C 6,7 C 6,6 C 100 % 1008,7 hPa 0,0 l/m 0 min 0 min 0 W/m 6,4 km/h (2 Bft) 95,74 %
13.12.2020 06:56 7,6 C 6,7 C 6,6 C 100 % 1008,7 hPa 0,0 l/m 0 min 0 min 0 W/m 3,2 km/h (1 Bft) 97,83 %
13.12.2020 06:58 7,6 C 6,7 C 6,6 C 100 % 1008,8 hPa 0,0 l/m 0 min 0 min 0 W/m 6,4 km/h (2 Bft) 97,87 %
13.12.2020 07:00 7,5 C 6,7 C 6,6 C 100 % 1008,8 hPa 0,0 l/m 0 min 2 min 0 W/m 0,0 km/h (0 Bft) 97,87 %
13.12.2020 07:02 7,5 C 6,7 C 6,6 C 100 % 1008,8 hPa 0,0 l/m 0 min 2 min 0 W/m 6,4 km/h (2 Bft) 97,87 %
13.12.2020 07:04 7,5 C 6,7 C 6,6 C 100 % 1008,8 hPa 0,0 l/m 0 min 2 min 0 W/m 6,4 km/h (2 Bft) 100,00 %
13.12.2020 07:06 7,5 C 6,7 C 6,6 C 100 % 1008,8 hPa 0,0 l/m 0 min 2 min 0 W/m 3,2 km/h (1 Bft) 100,00 %
13.12.2020 07:08 7,5 C 6,7 C 6,6 C 100 % 1008,9 hPa 0,0 l/m 0 min 2 min 0 W/m 16,1 km/h (3 Bft) 100,00 %
13.12.2020 07:10 7,5 C 6,7 C 6,6 C 100 % 1008,9 hPa 0,0 l/m 0 min 2 min 0 W/m 3,2 km/h (1 Bft) 100,00 %
13.12.2020 07:12 7,5 C 6,7 C 6,6 C 100 % 1008,9 hPa 0,0 l/m 0 min 0 min 0 W/m 6,4 km/h (2 Bft) 100,00 %
13.12.2020 07:14 7,5 C 6,7 C 6,6 C 100 % 1008,9 hPa 0,0 l/m 0 min 2 min 0 W/m 3,2 km/h (1 Bft) 100,00 %
13.12.2020 07:16 7,5 C 6,7 C 6,6 C 100 % 1009,0 hPa 0,0 l/m 0 min 2 min 0 W/m 12,9 km/h (3 Bft) 100,00 %
13.12.2020 07:18 7,5 C 6,7 C 6,6 C 100 % 1009,0 hPa 0,0 l/m 0 min 2 min 0 W/m 16,1 km/h (3 Bft) 100,00 %
13.12.2020 07:20 7,4 C 6,7 C 6,6 C 100 % 1009,0 hPa 0,0 l/m 0 min 0 min 0 W/m 16,1 km/h (3 Bft) 100,00 %
13.12.2020 07:22 7,4 C 6,7 C 6,6 C 100 % 1009,0 hPa 0,0 l/m 0 min 0 min 0 W/m 6,4 km/h (2 Bft) 100,00 %
13.12.2020 07:24 7,4 C 6,7 C 6,6 C 100 % 1009,0 hPa 0,0 l/m 0 min 0 min 0 W/m 16,1 km/h (3 Bft) 100,00 %
13.12.2020 07:26 7,4 C 6,7 C 6,6 C 100 % 1009,1 hPa 0,0 l/m 0 min 0 min 0 W/m 12,9 km/h (3 Bft) 100,00 %
13.12.2020 07:28 7,4 C 6,7 C 6,6 C 100 % 1009,1 hPa 0,0 l/m 0 min 0 min 0 W/m 6,4 km/h (2 Bft) 100,00 %
13.12.2020 07:30 7,4 C 6,7 C 6,6 C 100 % 1009,1 hPa 0,2 l/m 0 min 0 min 0 W/m 16,1 km/h (3 Bft) 100,00 %
13.12.2020 07:32 7,4 C 6,7 C 6,6 C 100 % 1009,1 hPa 0,0 l/m 0 min 0 min 0 W/m 6,4 km/h (2 Bft) 95,65 %
13.12.2020 07:34 7,3 C 6,7 C 6,6 C 100 % 1009,1 hPa 0,0 l/m 0 min 0 min 0 W/m 16,1 km/h (3 Bft) 100,00 %
13.12.2020 07:36 7,3 C 6,7 C 6,6 C 100 % 1009,1 hPa 0,0 l/m 0 min 0 min 0 W/m 16,1 km/h (3 Bft) 97,87 %
13.12.2020 07:38 7,3 C 6,7 C 6,6 C 100 % 1009,2 hPa 0,0 l/m 0 min 0 min 0 W/m 12,9 km/h (3 Bft) 100,00 %
13.12.2020 07:40 7,3 C 6,7 C 6,6 C 100 % 1009,2 hPa 0,0 l/m 0 min 0 min 0 W/m 16,1 km/h (3 Bft) 100,00 %
13.12.2020 07:42 7,3 C 6,7 C 6,6 C 100 % 1009,2 hPa 0,0 l/m 0 min 0 min 0 W/m 6,4 km/h (2 Bft) 100,00 %
13.12.2020 07:44 7,2 C 6,7 C 6,6 C 100 % 1009,2 hPa 0,0 l/m 0 min 0 min 0 W/m 12,9 km/h (3 Bft) 100,00 %
13.12.2020 07:46 7,2 C 6,7 C 6,6 C 100 % 1009,2 hPa 0,0 l/m 0 min 0 min 0 W/m 6,4 km/h (2 Bft) 98,15 %
13.12.2020 07:48 7,2 C 6,7 C 6,1 C 100 % 1009,3 hPa 0,0 l/m 0 min 0 min 0 W/m 16,1 km/h (3 Bft) 100,00 %
13.12.2020 07:50 7,2 C 6,7 C 6,1 C 100 % 1009,4 hPa 0,0 l/m 0 min 0 min 0 W/m 16,1 km/h (3 Bft) 100,00 %
13.12.2020 07:52 7,1 C 6,7 C 6,6 C 100 % 1009,3 hPa 0,0 l/m 0 min 0 min 0 W/m 6,4 km/h (2 Bft) 100,00 %
13.12.2020 07:54 7,1 C 6,7 C 6,6 C 100 % 1009,4 hPa 0,0 l/m 0 min 0 min 0 W/m 12,9 km/h (3 Bft) 97,87 %
13.12.2020 07:56 7,1 C 6,7 C 6,1 C 100 % 1009,4 hPa 0,0 l/m 0 min 0 min 0 W/m 12,9 km/h (3 Bft) 100,00 %
13.12.2020 07:58 7,1 C 6,7 C 6,1 C 100 % 1009,4 hPa 0,0 l/m 0 min 0 min 0 W/m 16,1 km/h (3 Bft) 100,00 %
13.12.2020 08:00 7,1 C 6,7 C 6,1 C 100 % 1009,4 hPa 0,0 l/m 0 min 0 min 0 W/m 12,9 km/h (3 Bft) 100,00 %
13.12.2020 08:02 7,1 C 6,7 C 6,1 C 100 % 1009,4 hPa 0,0 l/m 0 min 0 min 0 W/m 12,9 km/h (3 Bft) 100,00 %
13.12.2020 08:04 7,1 C 6,7 C 6,1 C 100 % 1009,4 hPa 0,0 l/m 0 min 0 min 0 W/m 19,3 km/h (3 Bft) 100,00 %
13.12.2020 08:06 7,1 C 6,7 C 6,1 C 100 % 1009,4 hPa 0,0 l/m 0 min 0 min 0 W/m 12,9 km/h (3 Bft) 97,87 %
13.12.2020 08:08 7,0 C 6,7 C 6,1 C 100 % 1009,4 hPa 0,0 l/m 0 min 0 min 0 W/m 16,1 km/h (3 Bft) 100,00 %
13.12.2020 08:10 7,0 C 6,7 C 6,1 C 100 % 1009,4 hPa 0,0 l/m 0 min 0 min 0 W/m 12,9 km/h (3 Bft) 100,00 %
13.12.2020 08:12 7,0 C 6,7 C 6,1 C 100 % 1009,4 hPa 0,0 l/m 0 min 0 min 0 W/m 6,4 km/h (2 Bft) 100,00 %
13.12.2020 08:14 7,0 C 6,7 C 6,1 C 100 % 1009,5 hPa 0,0 l/m 0 min 0 min 0 W/m 6,4 km/h (2 Bft) 100,00 %
13.12.2020 08:16 7,0 C 6,7 C 6,1 C 100 % 1009,5 hPa 0,0 l/m 0 min 0 min 0 W/m 19,3 km/h (3 Bft) 100,00 %
13.12.2020 08:18 7,0 C 6,1 C 6,1 C 100 % 1009,5 hPa 0,0 l/m 0 min 0 min 0 W/m 12,9 km/h (3 Bft) 100,00 %
13.12.2020 08:20 7,0 C 6,1 C 6,1 C 100 % 1009,4 hPa 0,0 l/m 0 min 0 min 0 W/m 16,1 km/h (3 Bft) 100,00 %
13.12.2020 08:22 7,0 C 6,1 C 6,1 C 100 % 1009,5 hPa 0,0 l/m 0 min 0 min 0 W/m 16,1 km/h (3 Bft) 100,00 %
13.12.2020 08:24 7,0 C 6,1 C 6,1 C 100 % 1009,5 hPa 0,0 l/m 0 min 0 min 0 W/m 16,1 km/h (3 Bft) 97,87 %
13.12.2020 08:26 7,0 C 6,7 C 6,1 C 100 % 1009,5 hPa 0,0 l/m 0 min 0 min 0 W/m 19,3 km/h (3 Bft) 97,87 %
13.12.2020 08:28 7,0 C 6,1 C 6,1 C 100 % 1009,5 hPa 0,0 l/m 0 min 0 min 0 W/m 12,9 km/h (3 Bft) 97,83 %
13.12.2020 08:30 7,0 C 6,7 C 6,1 C 100 % 1009,5 hPa 0,0 l/m 0 min 0 min 0 W/m 16,1 km/h (3 Bft) 97,87 %
13.12.2020 08:32 7,0 C 6,7 C 6,1 C 100 % 1009,6 hPa 0,0 l/m 0 min 0 min 0 W/m 25,7 km/h (4 Bft) 100,00 %
13.12.2020 08:34 6,9 C 6,1 C 6,1 C 100 % 1009,6 hPa 0,0 l/m 0 min 0 min 0 W/m 16,1 km/h (3 Bft) 100,00 %
13.12.2020 08:36 6,9 C 6,1 C 6,1 C 100 % 1009,6 hPa 0,0 l/m 0 min 0 min 0 W/m 12,9 km/h (3 Bft) 97,87 %
13.12.2020 08:38 6,9 C 6,1 C 6,1 C 100 % 1009,7 hPa 0,0 l/m 0 min 0 min 0 W/m 12,9 km/h (3 Bft) 97,83 %
13.12.2020 08:40 6,9 C 6,1 C 6,1 C 100 % 1009,7 hPa 0,0 l/m 0 min 0 min 0 W/m 19,3 km/h (3 Bft) 100,00 %
13.12.2020 08:42 6,9 C 6,1 C 6,1 C 100 % 1009,7 hPa 0,0 l/m 0 min 0 min 0 W/m 16,1 km/h (3 Bft) 95,74 %
13.12.2020 08:44 6,9 C 6,1 C 6,1 C 100 % 1009,7 hPa 0,0 l/m 0 min 0 min 0 W/m 16,1 km/h (3 Bft) 97,87 %
13.12.2020 08:46 6,9 C 6,1 C 6,1 C 100 % 1009,7 hPa 0,0 l/m 0 min 0 min 4 W/m 19,3 km/h (3 Bft) 93,62 %
13.12.2020 08:48 6,9 C 6,1 C 6,1 C 100 % 1009,7 hPa 0,0 l/m 0 min 0 min 5 W/m 19,3 km/h (3 Bft) 97,87 %
13.12.2020 08:50 6,9 C 6,1 C 6,1 C 100 % 1009,8 hPa 0,0 l/m 0 min 0 min 5 W/m 16,1 km/h (3 Bft) 97,83 %
13.12.2020 08:52 6,9 C 6,1 C 6,1 C 100 % 1009,9 hPa 0,0 l/m 0 min 0 min 5 W/m 16,1 km/h (3 Bft) 93,62 %
13.12.2020 08:54 6,9 C 6,1 C 6,1 C 100 % 1009,9 hPa 0,0 l/m 0 min 0 min 5 W/m 16,1 km/h (3 Bft) 97,87 %
13.12.2020 08:56 6,9 C 6,1 C 6,1 C 100 % 1010,0 hPa 0,0 l/m 0 min 0 min 5 W/m 12,9 km/h (3 Bft) 97,87 %
13.12.2020 08:58 6,8 C 6,1 C 6,1 C 100 % 1010,0 hPa 0,0 l/m 0 min 0 min 5 W/m 16,1 km/h (3 Bft) 97,87 %
13.12.2020 09:00 6,8 C 6,1 C 6,1 C 100 % 1010,0 hPa 0,0 l/m 0 min 0 min 1 W/m 16,1 km/h (3 Bft) 97,87 %
13.12.2020 09:02 6,8 C 6,1 C 6,1 C 100 % 1010,0 hPa 0,0 l/m 0 min 0 min 3 W/m 19,3 km/h (3 Bft) 93,48 %
13.12.2020 09:04 6,8 C 6,1 C 6,1 C 100 % 1010,0 hPa 0,0 l/m 0 min 0 min 5 W/m 19,3 km/h (3 Bft) 97,87 %
13.12.2020 09:06 6,8 C 6,1 C 6,1 C 100 % 1010,1 hPa 0,0 l/m 0 min 0 min 5 W/m 16,1 km/h (3 Bft) 95,74 %
13.12.2020 09:08 6,8 C 6,1 C 6,1 C 100 % 1010,1 hPa 0,0 l/m 0 min 0 min 5 W/m 19,3 km/h (3 Bft) 93,62 %
13.12.2020 09:10 6,8 C 6,1 C 6,1 C 100 % 1010,0 hPa 0,0 l/m 0 min 0 min 5 W/m 12,9 km/h (3 Bft) 95,74 %
13.12.2020 09:12 6,8 C 6,1 C 6,1 C 100 % 1010,1 hPa 0,0 l/m 0 min 0 min 5 W/m 19,3 km/h (3 Bft) 95,74 %
13.12.2020 09:14 6,8 C 6,1 C 6,1 C 100 % 1010,1 hPa 0,0 l/m 0 min 0 min 6 W/m 25,7 km/h (4 Bft) 95,65 %
13.12.2020 09:16 6,8 C 6,1 C 6,1 C 100 % 1010,1 hPa 0,0 l/m 0 min 0 min 7 W/m 19,3 km/h (3 Bft) 95,74 %
13.12.2020 09:18 6,7 C 6,1 C 6,1 C 100 % 1010,2 hPa 0,0 l/m 0 min 0 min 7 W/m 6,4 km/h (2 Bft) 95,74 %
13.12.2020 09:20 6,7 C 6,1 C 6,1 C 100 % 1010,2 hPa 0,0 l/m 0 min 0 min 7 W/m 6,4 km/h (2 Bft) 95,74 %
13.12.2020 09:22 6,7 C 6,1 C 6,1 C 100 % 1010,2 hPa 0,0 l/m 0 min 0 min 8 W/m 3,2 km/h (1 Bft) 95,74 %
13.12.2020 09:24 6,7 C 6,1 C 6,1 C 100 % 1010,3 hPa 0,0 l/m 0 min 0 min 11 W/m 0,0 km/h (0 Bft) 95,74 %
13.12.2020 09:26 6,7 C 6,1 C 6,1 C 100 % 1010,3 hPa 0,0 l/m 0 min 0 min 11 W/m 3,2 km/h (1 Bft) 97,83 %
13.12.2020 09:28 6,7 C 6,1 C 6,1 C 100 % 1010,3 hPa 0,0 l/m 0 min 0 min 12 W/m 3,2 km/h (1 Bft) 100,00 %
13.12.2020 09:30 6,7 C 6,1 C 6,1 C 100 % 1010,3 hPa 0,0 l/m 0 min 0 min 14 W/m 19,3 km/h (3 Bft) 97,87 %
13.12.2020 09:32 6,7 C 6,1 C 6,1 C 100 % 1010,3 hPa 0,0 l/m 0 min 0 min 14 W/m 3,2 km/h (1 Bft) 97,92 %
13.12.2020 09:34 6,7 C 6,1 C 6,1 C 100 % 1010,3 hPa 0,0 l/m 0 min 0 min 13 W/m 3,2 km/h (1 Bft) 97,87 %
13.12.2020 09:36 6,7 C 6,1 C 6,1 C 100 % 1010,4 hPa 0,0 l/m 0 min 0 min 12 W/m 3,2 km/h (1 Bft) 97,87 %
13.12.2020 09:38 6,7 C 6,1 C 6,1 C 100 % 1010,4 hPa 0,0 l/m 0 min 0 min 12 W/m 0,0 km/h (0 Bft) 97,22 %
13.12.2020 09:40 6,7 C 6,1 C 6,1 C 100 % 1010,4 hPa 0,0 l/m 0 min 0 min 12 W/m 0,0 km/h (0 Bft) 97,83 %
13.12.2020 09:42 6,7 C 6,1 C 6,1 C 100 % 1010,4 hPa 0,0 l/m 0 min 0 min 12 W/m 0,0 km/h (0 Bft) 97,87 %
13.12.2020 09:44 6,7 C 6,1 C 6,1 C 100 % 1010,4 hPa 0,0 l/m 0 min 0 min 12 W/m 0,0 km/h (0 Bft) 97,87 %
13.12.2020 09:46 6,7 C 6,1 C 6,1 C 100 % 1010,4 hPa 0,0 l/m 0 min 0 min 12 W/m 3,2 km/h (1 Bft) 95,92 %
13.12.2020 09:48 6,6 C 6,1 C 6,1 C 100 % 1010,5 hPa 0,0 l/m 0 min 0 min 12 W/m 3,2 km/h (1 Bft) 97,87 %
13.12.2020 09:50 6,6 C 6,1 C 6,1 C 100 % 1010,5 hPa 0,0 l/m 0 min 0 min 13 W/m 3,2 km/h (1 Bft) 97,83 %
13.12.2020 09:52 6,6 C 6,1 C 6,1 C 100 % 1010,5 hPa 0,0 l/m 0 min 0 min 17 W/m 0,0 km/h (0 Bft) 97,87 %
13.12.2020 09:54 6,7 C 6,1 C 6,1 C 100 % 1010,5 hPa 0,0 l/m 0 min 0 min 21 W/m 0,0 km/h (0 Bft) 100,00 %
13.12.2020 09:56 6,6 C 6,1 C 6,1 C 100 % 1010,6 hPa 0,0 l/m 0 min 0 min 23 W/m 3,2 km/h (1 Bft) 100,00 %
13.12.2020 09:58 6,6 C 6,1 C 6,1 C 100 % 1010,6 hPa 0,0 l/m 0 min 0 min 26 W/m 3,2 km/h (1 Bft) 97,87 %
13.12.2020 10:00 6,6 C 6,1 C 6,1 C 100 % 1010,6 hPa 0,0 l/m 0 min 0 min 24 W/m 0,0 km/h (0 Bft) 100,00 %
13.12.2020 10:02 6,6 C 6,1 C 6,1 C 100 % 1010,7 hPa 0,0 l/m 0 min 0 min 20 W/m 0,0 km/h (0 Bft) 100,00 %
13.12.2020 10:04 6,6 C 6,1 C 5,5 C 100 % 1010,6 hPa 0,0 l/m 0 min 0 min 19 W/m 0,0 km/h (0 Bft) 100,00 %
13.12.2020 10:06 6,6 C 6,1 C 5,5 C 100 % 1010,7 hPa 0,0 l/m 0 min 0 min 21 W/m 12,9 km/h (3 Bft) 100,00 %
13.12.2020 10:08 6,6 C 6,1 C 5,5 C 100 % 1010,7 hPa 0,0 l/m 0 min 0 min 23 W/m 3,2 km/h (1 Bft) 100,00 %
13.12.2020 10:10 6,6 C 6,1 C 5,5 C 100 % 1010,7 hPa 0,0 l/m 0 min 0 min 23 W/m 0,0 km/h (0 Bft) 100,00 %
13.12.2020 10:12 6,5 C 6,1 C 5,5 C 100 % 1010,7 hPa 0,0 l/m 0 min 0 min 24 W/m 0,0 km/h (0 Bft) 100,00 %
13.12.2020 10:14 6,5 C 6,1 C 5,5 C 100 % 1010,8 hPa 0,0 l/m 0 min 0 min 23 W/m 3,2 km/h (1 Bft) 100,00 %
13.12.2020 10:16 6,5 C 6,1 C 5,5 C 100 % 1010,8 hPa 0,0 l/m 0 min 0 min 21 W/m 0,0 km/h (0 Bft) 100,00 %
13.12.2020 10:18 6,5 C 6,1 C 5,5 C 100 % 1010,8 hPa 0,0 l/m 0 min 0 min 22 W/m 0,0 km/h (0 Bft) 100,00 %
13.12.2020 10:20 6,5 C 6,1 C 5,5 C 100 % 1010,8 hPa 0,0 l/m 0 min 0 min 23 W/m 0,0 km/h (0 Bft) 100,00 %
13.12.2020 10:22 6,5 C 5,6 C 5,5 C 100 % 1010,8 hPa 0,0 l/m 0 min 0 min 23 W/m 3,2 km/h (1 Bft) 100,00 %
13.12.2020 10:24 6,4 C 5,6 C 5,5 C 100 % 1010,8 hPa 0,0 l/m 0 min 0 min 25 W/m 0,0 km/h (0 Bft) 100,00 %
13.12.2020 10:26 6,4 C 5,6 C 5,5 C 100 % 1010,8 hPa 0,0 l/m 0 min 0 min 25 W/m 0,0 km/h (0 Bft) 100,00 %
13.12.2020 10:28 6,4 C 5,6 C 5,5 C 100 % 1010,8 hPa 0,0 l/m 0 min 0 min 28 W/m 16,1 km/h (3 Bft) 100,00 %
13.12.2020 10:30 6,4 C 6,1 C 5,5 C 100 % 1010,9 hPa 0,0 l/m 0 min 0 min 33 W/m 0,0 km/h (0 Bft) 100,00 %
13.12.2020 10:32 6,4 C 6,1 C 5,5 C 100 % 1010,9 hPa 0,0 l/m 0 min 0 min 34 W/m 0,0 km/h (0 Bft) 100,00 %
13.12.2020 10:34 6,4 C 6,1 C 5,5 C 100 % 1010,9 hPa 0,0 l/m 0 min 0 min 39 W/m 6,4 km/h (2 Bft) 100,00 %
13.12.2020 10:36 6,4 C 6,1 C 5,5 C 100 % 1010,9 hPa 0,0 l/m 0 min 0 min 48 W/m 0,0 km/h (0 Bft) 100,00 %
13.12.2020 10:38 6,4 C 6,1 C 5,5 C 100 % 1010,9 hPa 0,0 l/m 0 min 0 min 57 W/m 3,2 km/h (1 Bft) 100,00 %
13.12.2020 10:40 6,4 C 6,1 C 5,5 C 100 % 1011,0 hPa 0,0 l/m 0 min 0 min 64 W/m 0,0 km/h (0 Bft) 100,00 %
13.12.2020 10:42 6,4 C 6,1 C 6,1 C 100 % 1011,0 hPa 0,0 l/m 0 min 0 min 65 W/m 0,0 km/h (0 Bft) 100,00 %
13.12.2020 10:44 6,4 C 6,1 C 6,1 C 100 % 1011,0 hPa 0,0 l/m 0 min 0 min 65 W/m 12,9 km/h (3 Bft) 100,00 %
13.12.2020 10:46 6,4 C 6,1 C 6,1 C 100 % 1011,0 hPa 0,0 l/m 0 min 0 min 64 W/m 25,7 km/h (4 Bft) 100,00 %
13.12.2020 10:48 6,5 C 6,1 C 6,1 C 100 % 1011,0 hPa 0,0 l/m 0 min 0 min 58 W/m 19,3 km/h (3 Bft) 97,87 %
13.12.2020 10:50 6,5 C 6,1 C 6,1 C 100 % 1011,0 hPa 0,0 l/m 0 min 0 min 55 W/m 16,1 km/h (3 Bft) 100,00 %
13.12.2020 10:52 6,5 C 6,1 C 6,1 C 100 % 1011,1 hPa 0,0 l/m 0 min 0 min 54 W/m 16,1 km/h (3 Bft) 100,00 %
13.12.2020 10:54 6,5 C 6,1 C 6,1 C 100 % 1011,1 hPa 0,0 l/m 0 min 0 min 55 W/m 19,3 km/h (3 Bft) 100,00 %
13.12.2020 10:56 6,5 C 6,1 C 6,1 C 99 % 1011,1 hPa 0,0 l/m 0 min 0 min 57 W/m 12,9 km/h (3 Bft) 97,87 %
13.12.2020 10:58 6,6 C 6,1 C 6,1 C 99 % 1011,1 hPa 0,0 l/m 0 min 0 min 57 W/m 16,1 km/h (3 Bft) 95,74 %
13.12.2020 11:00 6,6 C 6,7 C 6,1 C 99 % 1011,1 hPa 0,0 l/m 0 min 0 min 56 W/m 12,9 km/h (3 Bft) 100,00 %
13.12.2020 11:02 6,6 C 6,7 C 6,1 C 100 % 1011,2 hPa 0,0 l/m 0 min 0 min 56 W/m 12,9 km/h (3 Bft) 97,87 %
13.12.2020 11:04 6,7 C 6,7 C 6,1 C 100 % 1011,1 hPa 0,0 l/m 0 min 0 min 58 W/m 16,1 km/h (3 Bft) 100,00 %
13.12.2020 11:06 6,7 C 6,7 C 6,1 C 100 % 1011,2 hPa 0,0 l/m 0 min 0 min 57 W/m 12,9 km/h (3 Bft) 97,87 %
13.12.2020 11:08 6,8 C 6,7 C 6,1 C 99 % 1011,2 hPa 0,0 l/m 0 min 0 min 54 W/m 22,5 km/h (4 Bft) 100,00 %
13.12.2020 11:10 6,8 C 6,7 C 6,6 C 99 % 1011,3 hPa 0,0 l/m 0 min 0 min 57 W/m 19,3 km/h (3 Bft) 100,00 %
13.12.2020 11:12 6,8 C 6,7 C 6,6 C 99 % 1011,2 hPa 0,0 l/m 0 min 0 min 62 W/m 6,4 km/h (2 Bft) 95,65 %
13.12.2020 11:14 6,8 C 6,7 C 6,6 C 99 % 1011,2 hPa 0,0 l/m 0 min 0 min 65 W/m 12,9 km/h (3 Bft) 97,87 %
13.12.2020 11:16 6,9 C 6,7 C 6,6 C 99 % 1011,2 hPa 0,0 l/m 0 min 0 min 67 W/m 6,4 km/h (2 Bft) 97,87 %
13.12.2020 11:18 6,9 C 6,7 C 6,6 C 99 % 1011,2 hPa 0,0 l/m 0 min 0 min 68 W/m 3,2 km/h (1 Bft) 97,87 %
13.12.2020 11:20 6,9 C 6,7 C 6,6 C 99 % 1011,2 hPa 0,0 l/m 0 min 0 min 69 W/m 16,1 km/h (3 Bft) 93,62 %
13.12.2020 11:22 6,9 C 6,7 C 6,6 C 99 % 1011,2 hPa 0,0 l/m 0 min 0 min 68 W/m 0,0 km/h (0 Bft) 97,87 %
13.12.2020 11:24 7,0 C 6,7 C 6,6 C 99 % 1011,2 hPa 0,0 l/m 0 min 0 min 67 W/m 12,9 km/h (3 Bft) 97,83 %
13.12.2020 11:26 7,0 C 6,7 C 6,6 C 99 % 1011,2 hPa 0,0 l/m 0 min 0 min 67 W/m 12,9 km/h (3 Bft) 97,87 %
13.12.2020 11:28 7,0 C 6,7 C 6,6 C 99 % 1011,3 hPa 0,0 l/m 0 min 0 min 63 W/m 19,3 km/h (3 Bft) 97,87 %
13.12.2020 11:30 7,0 C 6,7 C 6,6 C 99 % 1011,3 hPa 0,0 l/m 0 min 0 min 60 W/m 19,3 km/h (3 Bft) 97,87 %
13.12.2020 11:32 7,0 C 6,7 C 6,6 C 99 % 1011,4 hPa 0,0 l/m 0 min 0 min 61 W/m 16,1 km/h (3 Bft) 97,87 %
13.12.2020 11:34 7,0 C 6,7 C 6,6 C 99 % 1011,4 hPa 0,0 l/m 0 min 0 min 62 W/m 12,9 km/h (3 Bft) 97,87 %
13.12.2020 11:36 7,0 C 6,7 C 6,6 C 99 % 1011,3 hPa 0,0 l/m 0 min 0 min 64 W/m 12,9 km/h (3 Bft) 97,83 %
13.12.2020 11:38 7,1 C 6,7 C 7,2 C 99 % 1011,3 hPa 0,0 l/m 0 min 0 min 63 W/m 3,2 km/h (1 Bft) 97,87 %
13.12.2020 11:40 7,1 C 6,7 C 6,6 C 99 % 1011,4 hPa 0,0 l/m 0 min 0 min 63 W/m 3,2 km/h (1 Bft) 93,62 %
13.12.2020 11:42 7,1 C 6,7 C 7,2 C 99 % 1011,3 hPa 0,0 l/m 0 min 0 min 63 W/m 3,2 km/h (1 Bft) 97,87 %
13.12.2020 11:44 7,1 C 6,7 C 7,2 C 99 % 1011,3 hPa 0,0 l/m 0 min 0 min 63 W/m 3,2 km/h (1 Bft) 95,74 %
13.12.2020 11:46 7,2 C 6,7 C 7,2 C 99 % 1011,3 hPa 0,0 l/m 0 min 0 min 67 W/m 12,9 km/h (3 Bft) 97,87 %
13.12.2020 11:48 7,2 C 7,2 C 7,2 C 99 % 1011,3 hPa 0,0 l/m 0 min 0 min 73 W/m 6,4 km/h (2 Bft) 95,65 %
13.12.2020 11:50 7,2 C 7,2 C 7,2 C 99 % 1011,4 hPa 0,0 l/m 0 min 0 min 80 W/m 3,2 km/h (1 Bft) 95,74 %
13.12.2020 11:52 7,3 C 7,2 C 7,2 C 98 % 1011,4 hPa 0,0 l/m 0 min 0 min 79 W/m 3,2 km/h (1 Bft) 100,00 %
13.12.2020 11:54 7,3 C 7,2 C 7,2 C 98 % 1011,3 hPa 0,0 l/m 0 min 0 min 76 W/m 12,9 km/h (3 Bft) 97,87 %
13.12.2020 11:56 7,3 C 7,2 C 7,2 C 98 % 1011,4 hPa 0,0 l/m 0 min 0 min 75 W/m 6,4 km/h (2 Bft) 97,87 %
13.12.2020 11:58 7,3 C 7,2 C 7,2 C 98 % 1011,3 hPa 0,0 l/m 0 min 0 min 82 W/m 6,4 km/h (2 Bft) 97,87 %
13.12.2020 12:00 7,3 C 7,8 C 7,2 C 98 % 1011,3 hPa 0,0 l/m 0 min 0 min 93 W/m 3,2 km/h (1 Bft) 97,83 %
13.12.2020 12:02 7,4 C 7,8 C 7,2 C 98 % 1011,3 hPa 0,0 l/m 0 min 0 min 98 W/m 3,2 km/h (1 Bft) 95,74 %
13.12.2020 12:04 7,4 C 7,8 C 7,2 C 98 % 1011,3 hPa 0,0 l/m 0 min 0 min 92 W/m 6,4 km/h (2 Bft) 97,87 %
13.12.2020 12:07 7,4 C 8,3 C 7,2 C 98 % 1011,3 hPa 0,0 l/m 0 min 0 min 111 W/m 12,9 km/h (3 Bft) 98,57 %
13.12.2020 12:08 7,4 C 9,4 C 7,7 C 98 % 1011,3 hPa 0,0 l/m 1 min 0 min 167 W/m 0,0 km/h (0 Bft) 96,15 %
13.12.2020 12:10 7,5 C 10,6 C 8,3 C 98 % 1011,3 hPa 0,0 l/m 2 min 0 min 289 W/m 12,9 km/h (3 Bft) 95,74 %
13.12.2020 12:12 7,5 C 11,7 C 8,3 C 98 % 1011,3 hPa 0,0 l/m 2 min 0 min 260 W/m 12,9 km/h (3 Bft) 97,83 %
13.12.2020 12:14 7,6 C 12,8 C 8,8 C 98 % 1011,2 hPa 0,0 l/m 2 min 0 min 270 W/m 3,2 km/h (1 Bft) 95,74 %
13.12.2020 12:16 7,7 C 11,7 C 8,8 C 98 % 1011,2 hPa 0,0 l/m 2 min 0 min 278 W/m 16,1 km/h (3 Bft) 93,62 %
13.12.2020 12:18 7,8 C 11,7 C 9,4 C 98 % 1011,2 hPa 0,0 l/m 2 min 0 min 285 W/m 19,3 km/h (3 Bft) 95,74 %
13.12.2020 12:20 7,8 C 12,2 C 9,4 C 97 % 1011,1 hPa 0,0 l/m 2 min 0 min 271 W/m 6,4 km/h (2 Bft) 97,87 %
13.12.2020 12:22 7,9 C 11,1 C 8,8 C 97 % 1011,1 hPa 0,0 l/m 2 min 0 min 181 W/m 6,4 km/h (2 Bft) 95,74 %
13.12.2020 12:24 8,0 C 10,6 C 8,3 C 97 % 1011,1 hPa 0,0 l/m 0 min 0 min 89 W/m 3,2 km/h (1 Bft) 97,83 %
13.12.2020 12:26 8,0 C 11,1 C 8,8 C 97 % 1011,0 hPa 0,0 l/m 2 min 0 min 195 W/m 12,9 km/h (3 Bft) 97,87 %
13.12.2020 12:28 8,0 C 12,2 C 9,4 C 97 % 1011,1 hPa 0,0 l/m 2 min 0 min 271 W/m 12,9 km/h (3 Bft) 97,87 %
13.12.2020 12:30 8,1 C 12,2 C 9,4 C 97 % 1011,1 hPa 0,0 l/m 2 min 0 min 258 W/m 6,4 km/h (2 Bft) 97,87 %
13.12.2020 12:32 8,1 C 12,8 C 9,9 C 96 % 1011,0 hPa 0,0 l/m 2 min 0 min 254 W/m 6,4 km/h (2 Bft) 97,87 %
13.12.2020 12:34 8,2 C 12,8 C 9,9 C 96 % 1011,0 hPa 0,0 l/m 2 min 0 min 246 W/m 3,2 km/h (1 Bft) 95,74 %
13.12.2020 12:36 8,3 C 12,8 C 9,9 C 96 % 1011,0 hPa 0,0 l/m 2 min 0 min 243 W/m 12,9 km/h (3 Bft) 95,65 %
13.12.2020 12:38 8,4 C 12,8 C 9,9 C 95 % 1011,0 hPa 0,0 l/m 2 min 0 min 238 W/m 0,0 km/h (0 Bft) 97,87 %
13.12.2020 12:40 8,4 C 12,8 C 9,9 C 95 % 1011,0 hPa 0,0 l/m 2 min 0 min 239 W/m 12,9 km/h (3 Bft) 95,74 %
13.12.2020 12:42 8,5 C 12,8 C 9,9 C 95 % 1011,0 hPa 0,0 l/m 2 min 0 min 251 W/m 16,1 km/h (3 Bft) 97,87 %
13.12.2020 12:44 8,5 C 12,8 C 9,9 C 94 % 1011,0 hPa 0,0 l/m 2 min 0 min 253 W/m 6,4 km/h (2 Bft) 97,87 %
13.12.2020 12:46 8,6 C 13,3 C 9,9 C 94 % 1011,0 hPa 0,0 l/m 2 min 0 min 260 W/m 3,2 km/h (1 Bft) 97,87 %
13.12.2020 12:48 8,7 C 13,3 C 10,5 C 93 % 1011,0 hPa 0,0 l/m 2 min 0 min 261 W/m 3,2 km/h (1 Bft) 97,83 %
13.12.2020 12:50 8,8 C 13,9 C 10,5 C 93 % 1011,0 hPa 0,0 l/m 2 min 0 min 255 W/m 12,9 km/h (3 Bft) 95,74 %
13.12.2020 12:52 8,9 C 13,3 C 10,5 C 93 % 1011,0 hPa 0,0 l/m 2 min 0 min 263 W/m 12,9 km/h (3 Bft) 97,87 %
13.12.2020 12:54 8,9 C 13,3 C 10,5 C 92 % 1011,0 hPa 0,0 l/m 2 min 0 min 271 W/m 3,2 km/h (1 Bft) 97,87 %
13.12.2020 12:56 8,9 C 13,3 C 10,5 C 92 % 1011,0 hPa 0,0 l/m 2 min 0 min 269 W/m 6,4 km/h (2 Bft) 97,87 %
13.12.2020 12:58 9,0 C 12,2 C 9,9 C 91 % 1011,0 hPa 0,0 l/m 2 min 0 min 280 W/m 12,9 km/h (3 Bft) 97,87 %
13.12.2020 13:00 9,0 C 12,2 C 9,9 C 91 % 1011,0 hPa 0,0 l/m 2 min 0 min 170 W/m 16,1 km/h (3 Bft) 97,83 %
13.12.2020 13:02 9,0 C 11,7 C 9,4 C 90 % 1011,0 hPa 0,0 l/m 2 min 0 min 291 W/m 6,4 km/h (2 Bft) 97,87 %
13.12.2020 13:04 9,0 C 11,7 C 8,8 C 90 % 1011,0 hPa 0,0 l/m 0 min 0 min 124 W/m 12,9 km/h (3 Bft) 97,87 %
13.12.2020 13:06 9,0 C 10,6 C 8,8 C 89 % 1011,0 hPa 0,0 l/m 0 min 0 min 103 W/m 6,4 km/h (2 Bft) 97,87 %
13.12.2020 13:08 9,0 C 10,0 C 8,3 C 89 % 1010,9 hPa 0,0 l/m 0 min 0 min 88 W/m 6,4 km/h (2 Bft) 97,87 %
13.12.2020 13:10 9,0 C 9,4 C 8,3 C 89 % 1011,0 hPa 0,0 l/m 0 min 0 min 73 W/m 6,4 km/h (2 Bft) 97,87 %
13.12.2020 13:12 9,0 C 8,9 C 7,7 C 89 % 1011,0 hPa 0,0 l/m 0 min 0 min 71 W/m 16,1 km/h (3 Bft) 97,83 %
13.12.2020 13:14 9,0 C 8,3 C 7,7 C 88 % 1011,0 hPa 0,0 l/m 0 min 0 min 56 W/m 12,9 km/h (3 Bft) 97,87 %
13.12.2020 13:16 9,0 C 8,3 C 7,7 C 88 % 1011,0 hPa 0,0 l/m 0 min 0 min 58 W/m 9,7 km/h (2 Bft) 95,74 %
13.12.2020 13:18 9,0 C 8,3 C 7,7 C 88 % 1011,1 hPa 0,0 l/m 0 min 0 min 67 W/m 3,2 km/h (1 Bft) 97,87 %
13.12.2020 13:20 9,0 C 8,3 C 7,7 C 88 % 1011,0 hPa 0,0 l/m 0 min 0 min 78 W/m 3,2 km/h (1 Bft) 97,87 %
13.12.2020 13:22 9,0 C 8,3 C 7,7 C 88 % 1011,0 hPa 0,0 l/m 0 min 0 min 100 W/m 3,2 km/h (1 Bft) 95,74 %
13.12.2020 13:24 8,9 C 8,3 C 7,7 C 88 % 1011,0 hPa 0,0 l/m 0 min 0 min 99 W/m 0,0 km/h (0 Bft) 97,83 %
13.12.2020 13:26 8,9 C 8,3 C 7,7 C 88 % 1011,0 hPa 0,0 l/m 0 min 0 min 74 W/m 12,9 km/h (3 Bft) 97,87 %
13.12.2020 13:28 8,9 C 8,3 C 7,7 C 88 % 1011,0 hPa 0,0 l/m 0 min 0 min 51 W/m 3,2 km/h (1 Bft) 97,87 %
13.12.2020 13:30 8,9 C 8,3 C 7,7 C 88 % 1011,1 hPa 0,0 l/m 0 min 0 min 40 W/m 3,2 km/h (1 Bft) 97,87 %
13.12.2020 13:32 8,9 C 8,3 C 7,2 C 88 % 1011,1 hPa 0,0 l/m 0 min 0 min 39 W/m 12,9 km/h (3 Bft) 97,87 %
13.12.2020 13:34 8,9 C 8,3 C 7,2 C 88 % 1011,1 hPa 0,0 l/m 0 min 0 min 39 W/m 3,2 km/h (1 Bft) 97,83 %
13.12.2020 13:36 8,8 C 7,8 C 7,2 C 88 % 1011,1 hPa 0,0 l/m 0 min 0 min 39 W/m 3,2 km/h (1 Bft) 97,87 %
13.12.2020 13:38 8,8 C 7,8 C 7,2 C 88 % 1011,0 hPa 0,0 l/m 0 min 0 min 37 W/m 3,2 km/h (1 Bft) 97,73 %
13.12.2020 13:40 8,8 C 7,8 C 7,2 C 88 % 1011,0 hPa 0,0 l/m 0 min 0 min 36 W/m 3,2 km/h (1 Bft) 97,87 %
13.12.2020 13:42 8,8 C 7,8 C 7,2 C 88 % 1011,0 hPa 0,0 l/m 0 min 0 min 32 W/m 0,0 km/h (0 Bft) 95,74 %
13.12.2020 13:44 8,7 C 7,8 C 7,2 C 88 % 1011,1 hPa 0,0 l/m 0 min 0 min 25 W/m 0,0 km/h (0 Bft) 97,87 %
13.12.2020 13:46 8,7 C 7,8 C 7,2 C 88 % 1011,1 hPa 0,0 l/m 0 min 0 min 23 W/m 0,0 km/h (0 Bft) 97,83 %
13.12.2020 13:48 8,7 C 7,8 C 7,2 C 88 % 1011,0 hPa 0,0 l/m 0 min 0 min 24 W/m 0,0 km/h (0 Bft) 97,87 %
13.12.2020 13:50 8,6 C 7,8 C 7,2 C 88 % 1011,0 hPa 0,0 l/m 0 min 0 min 29 W/m 0,0 km/h (0 Bft) 95,74 %
13.12.2020 13:52 8,6 C 8,3 C 7,2 C 88 % 1011,1 hPa 0,0 l/m 0 min 0 min 39 W/m 0,0 km/h (0 Bft) 97,87 %
13.12.2020 13:54 8,6 C 8,3 C 7,2 C 88 % 1011,1 hPa 0,0 l/m 0 min 0 min 92 W/m 0,0 km/h (0 Bft) 97,87 %
13.12.2020 13:56 8,6 C 8,3 C 7,2 C 88 % 1011,1 hPa 0,0 l/m 0 min 0 min 77 W/m 0,0 km/h (0 Bft) 97,87 %
13.12.2020 13:58 8,6 C 8,9 C 7,7 C 89 % 1011,1 hPa 0,0 l/m 0 min 0 min 84 W/m 0,0 km/h (0 Bft) 97,83 %
13.12.2020 14:00 8,6 C 8,3 C 7,7 C 89 % 1011,2 hPa 0,0 l/m 0 min 0 min 73 W/m 3,2 km/h (1 Bft) 95,74 %
13.12.2020 14:02 8,6 C 8,9 C 7,7 C 89 % 1011,1 hPa 0,0 l/m 0 min 0 min 65 W/m 0,0 km/h (0 Bft) 95,74 %
13.12.2020 14:04 8,6 C 8,3 C 7,7 C 89 % 1011,1 hPa 0,0 l/m 0 min 0 min 64 W/m 0,0 km/h (0 Bft) 97,87 %
13.12.2020 14:06 8,6 C 8,3 C 7,7 C 89 % 1011,1 hPa 0,0 l/m 0 min 0 min 69 W/m 3,2 km/h (1 Bft) 97,87 %
13.12.2020 14:08 8,6 C 8,3 C 7,7 C 89 % 1011,1 hPa 0,0 l/m 0 min 0 min 70 W/m 16,1 km/h (3 Bft) 100,00 %
13.12.2020 14:10 8,6 C 8,3 C 7,7 C 88 % 1011,1 hPa 0,0 l/m 0 min 0 min 63 W/m 0,0 km/h (0 Bft) 95,65 %
13.12.2020 14:12 8,6 C 8,3 C 7,7 C 88 % 1011,2 hPa 0,0 l/m 0 min 0 min 61 W/m 0,0 km/h (0 Bft) 100,00 %
13.12.2020 14:14 8,6 C 8,3 C 7,2 C 88 % 1011,2 hPa 0,0 l/m 0 min 0 min 63 W/m 16,1 km/h (3 Bft) 93,62 %
13.12.2020 14:16 8,5 C 8,3 C 7,2 C 88 % 1011,2 hPa 0,0 l/m 0 min 0 min 63 W/m 0,0 km/h (0 Bft) 95,74 %
13.12.2020 14:18 8,5 C 8,3 C 7,2 C 88 % 1011,2 hPa 0,0 l/m 0 min 0 min 60 W/m 3,2 km/h (1 Bft) 97,87 %
13.12.2020 14:20 8,5 C 8,3 C 7,2 C 87 % 1011,2 hPa 0,0 l/m 0 min 0 min 59 W/m 6,4 km/h (2 Bft) 95,74 %
13.12.2020 14:22 8,5 C 8,3 C 7,2 C 87 % 1011,2 hPa 0,0 l/m 0 min 0 min 63 W/m 3,2 km/h (1 Bft) 91,30 %
13.12.2020 14:24 8,5 C 8,3 C 7,2 C 87 % 1011,2 hPa 0,0 l/m 0 min 0 min 68 W/m 6,4 km/h (2 Bft) 95,74 %
13.12.2020 14:26 8,5 C 8,3 C 7,2 C 87 % 1011,1 hPa 0,0 l/m 0 min 0 min 68 W/m 12,9 km/h (3 Bft) 93,62 %
13.12.2020 14:28 8,5 C 8,3 C 7,2 C 86 % 1011,1 hPa 0,0 l/m 0 min 0 min 69 W/m 3,2 km/h (1 Bft) 95,74 %
13.12.2020 14:30 8,5 C 8,3 C 7,2 C 86 % 1011,1 hPa 0,0 l/m 0 min 0 min 70 W/m 12,9 km/h (3 Bft) 93,62 %
13.12.2020 14:32 8,5 C 8,3 C 7,2 C 86 % 1011,1 hPa 0,0 l/m 0 min 0 min 69 W/m 0,0 km/h (0 Bft) 95,74 %
13.12.2020 14:34 8,4 C 8,3 C 7,2 C 86 % 1011,0 hPa 0,0 l/m 0 min 0 min 66 W/m 6,4 km/h (2 Bft) 95,65 %
13.12.2020 14:36 8,4 C 8,3 C 7,2 C 86 % 1011,0 hPa 0,0 l/m 0 min 0 min 62 W/m 0,0 km/h (0 Bft) 95,74 %
13.12.2020 14:38 8,4 C 8,3 C 7,2 C 86 % 1011,0 hPa 0,0 l/m 0 min 0 min 61 W/m 0,0 km/h (0 Bft) 91,49 %
13.12.2020 14:40 8,4 C 7,8 C 7,2 C 86 % 1011,0 hPa 0,0 l/m 0 min 0 min 59 W/m 25,7 km/h (4 Bft) 95,74 %
13.12.2020 14:42 8,4 C 7,8 C 7,2 C 86 % 1010,9 hPa 0,0 l/m 0 min 0 min 56 W/m 3,2 km/h (1 Bft) 95,74 %
13.12.2020 14:44 8,4 C 7,8 C 7,2 C 86 % 1011,0 hPa 0,0 l/m 0 min 0 min 54 W/m 6,4 km/h (2 Bft) 95,65 %
13.12.2020 14:46 8,4 C 7,8 C 7,2 C 86 % 1011,0 hPa 0,0 l/m 0 min 0 min 52 W/m 3,2 km/h (1 Bft) 95,74 %
13.12.2020 14:48 8,4 C 7,8 C 6,6 C 85 % 1011,0 hPa 0,0 l/m 0 min 0 min 49 W/m 12,9 km/h (3 Bft) 89,36 %
13.12.2020 14:50 8,4 C 7,8 C 6,6 C 85 % 1011,0 hPa 0,0 l/m 0 min 0 min 48 W/m 6,4 km/h (2 Bft) 95,74 %
13.12.2020 14:52 8,3 C 7,8 C 6,6 C 85 % 1011,1 hPa 0,0 l/m 0 min 0 min 46 W/m 12,9 km/h (3 Bft) 95,74 %
13.12.2020 14:54 8,3 C 7,8 C 6,6 C 84 % 1011,0 hPa 0,0 l/m 0 min 0 min 44 W/m 3,2 km/h (1 Bft) 95,74 %
13.12.2020 14:56 8,3 C 7,8 C 6,6 C 84 % 1011,0 hPa 0,0 l/m 0 min 0 min 42 W/m 0,0 km/h (0 Bft) 93,48 %
13.12.2020 14:58 8,3 C 7,8 C 6,6 C 84 % 1011,1 hPa 0,0 l/m 0 min 0 min 44 W/m 0,0 km/h (0 Bft) 95,74 %
13.12.2020 15:00 8,3 C 7,8 C 6,6 C 84 % 1011,1 hPa 0,0 l/m 0 min 0 min 44 W/m 3,2 km/h (1 Bft) 97,87 %
13.12.2020 15:02 8,2 C 7,8 C 6,6 C 84 % 1011,1 hPa 0,0 l/m 0 min 0 min 44 W/m 6,4 km/h (2 Bft) 97,87 %
13.12.2020 15:04 8,3 C 7,8 C 6,6 C 84 % 1011,1 hPa 0,0 l/m 0 min 0 min 42 W/m 3,2 km/h (1 Bft) 97,87 %
13.12.2020 15:06 8,2 C 7,8 C 6,6 C 84 % 1011,1 hPa 0,0 l/m 0 min 0 min 43 W/m 0,0 km/h (0 Bft) 97,87 %
13.12.2020 15:08 8,2 C 7,8 C 6,6 C 84 % 1011,1 hPa 0,0 l/m 0 min 0 min 46 W/m 0,0 km/h (0 Bft) 100,00 %
13.12.2020 15:10 8,2 C 7,8 C 6,6 C 84 % 1011,1 hPa 0,0 l/m 0 min 0 min 48 W/m 12,9 km/h (3 Bft) 100,00 %
13.12.2020 15:12 8,2 C 7,8 C 6,6 C 84 % 1011,1 hPa 0,0 l/m 0 min 0 min 52 W/m 0,0 km/h (0 Bft) 100,00 %
13.12.2020 15:14 8,2 C 7,8 C 6,6 C 84 % 1011,1 hPa 0,0 l/m 0 min 0 min 53 W/m 0,0 km/h (0 Bft) 100,00 %
13.12.2020 15:16 8,2 C 7,8 C 6,6 C 84 % 1011,1 hPa 0,0 l/m 0 min 0 min 53 W/m 0,0 km/h (0 Bft) 100,00 %
13.12.2020 15:18 8,2 C 7,8 C 6,6 C 85 % 1011,1 hPa 0,0 l/m 0 min 0 min 52 W/m 0,0 km/h (0 Bft) 100,00 %
13.12.2020 15:20 8,2 C 7,8 C 6,6 C 85 % 1011,1 hPa 0,0 l/m 0 min 0 min 51 W/m 0,0 km/h (0 Bft) 100,00 %
13.12.2020 15:22 8,2 C 7,8 C 6,6 C 85 % 1011,1 hPa 0,0 l/m 0 min 0 min 51 W/m 3,2 km/h (1 Bft) 100,00 %
13.12.2020 15:24 8,2 C 7,8 C 6,6 C 85 % 1011,1 hPa 0,0 l/m 0 min 0 min 50 W/m 0,0 km/h (0 Bft) 100,00 %
13.12.2020 15:26 8,2 C 7,8 C 6,6 C 85 % 1011,1 hPa 0,0 l/m 0 min 0 min 47 W/m 0,0 km/h (0 Bft) 100,00 %
13.12.2020 15:28 8,2 C 7,8 C 6,6 C 85 % 1011,1 hPa 0,0 l/m 0 min 0 min 45 W/m 0,0 km/h (0 Bft) 100,00 %
13.12.2020 15:30 8,2 C 7,8 C 6,6 C 85 % 1011,1 hPa 0,0 l/m 0 min 0 min 41 W/m 0,0 km/h (0 Bft) 97,87 %
13.12.2020 15:32 8,2 C 7,8 C 6,6 C 85 % 1011,1 hPa 0,0 l/m 0 min 0 min 40 W/m 3,2 km/h (1 Bft) 100,00 %
13.12.2020 15:34 8,2 C 7,8 C 6,1 C 85 % 1011,2 hPa 0,0 l/m 0 min 0 min 40 W/m 6,4 km/h (2 Bft) 100,00 %
13.12.2020 15:36 8,2 C 7,8 C 6,6 C 85 % 1011,1 hPa 0,0 l/m 0 min 0 min 38 W/m 0,0 km/h (0 Bft) 100,00 %
13.12.2020 15:38 8,1 C 7,8 C 6,6 C 85 % 1011,2 hPa 0,0 l/m 0 min 0 min 36 W/m 0,0 km/h (0 Bft) 100,00 %
13.12.2020 15:40 8,1 C 7,8 C 6,1 C 85 % 1011,2 hPa 0,0 l/m 0 min 0 min 31 W/m 0,0 km/h (0 Bft) 100,00 %
13.12.2020 15:42 8,1 C 7,8 C 6,1 C 85 % 1011,2 hPa 0,0 l/m 0 min 0 min 26 W/m 0,0 km/h (0 Bft) 100,00 %
13.12.2020 15:44 8,1 C 7,2 C 6,1 C 86 % 1011,2 hPa 0,0 l/m 0 min 0 min 22 W/m 0,0 km/h (0 Bft) 100,00 %
13.12.2020 15:46 8,1 C 7,2 C 6,1 C 86 % 1011,2 hPa 0,0 l/m 0 min 0 min 19 W/m 3,2 km/h (1 Bft) 100,00 %
13.12.2020 15:48 8,1 C 7,2 C 6,1 C 85 % 1011,1 hPa 0,0 l/m 0 min 0 min 18 W/m 6,4 km/h (2 Bft) 100,00 %
13.12.2020 15:50 8,1 C 7,2 C 6,1 C 85 % 1011,1 hPa 0,0 l/m 0 min 0 min 15 W/m 0,0 km/h (0 Bft) 100,00 %
13.12.2020 15:52 8,0 C 7,2 C 6,1 C 85 % 1011,1 hPa 0,0 l/m 0 min 0 min 12 W/m 19,3 km/h (3 Bft) 97,87 %
13.12.2020 15:54 8,0 C 7,2 C 6,1 C 85 % 1011,1 hPa 0,0 l/m 0 min 0 min 11 W/m 3,2 km/h (1 Bft) 100,00 %
13.12.2020 15:56 8,0 C 7,2 C 6,1 C 85 % 1011,1 hPa 0,0 l/m 0 min 0 min 10 W/m 3,2 km/h (1 Bft) 100,00 %
13.12.2020 15:58 8,0 C 7,2 C 6,1 C 85 % 1011,1 hPa 0,0 l/m 0 min 0 min 9 W/m 6,4 km/h (2 Bft) 100,00 %
13.12.2020 16:00 8,0 C 7,2 C 6,1 C 84 % 1011,1 hPa 0,0 l/m 0 min 0 min 9 W/m 6,4 km/h (2 Bft) 100,00 %
13.12.2020 16:02 8,0 C 7,2 C 6,1 C 84 % 1011,1 hPa 0,0 l/m 0 min 0 min 9 W/m 3,2 km/h (1 Bft) 100,00 %
13.12.2020 16:04 7,9 C 7,2 C 5,5 C 84 % 1011,1 hPa 0,0 l/m 0 min 0 min 7 W/m 3,2 km/h (1 Bft) 100,00 %
13.12.2020 16:06 7,9 C 7,2 C 5,5 C 84 % 1011,1 hPa 0,0 l/m 0 min 0 min 7 W/m 12,9 km/h (3 Bft) 100,00 %
13.12.2020 16:08 7,9 C 7,2 C 5,5 C 84 % 1011,2 hPa 0,0 l/m 0 min 0 min 7 W/m 3,2 km/h (1 Bft) 100,00 %
13.12.2020 16:10 7,8 C 7,2 C 5,5 C 84 % 1011,3 hPa 0,0 l/m 0 min 0 min 5 W/m 3,2 km/h (1 Bft) 100,00 %
13.12.2020 16:12 7,8 C 7,2 C 5,5 C 84 % 1011,3 hPa 0,0 l/m 0 min 0 min 5 W/m 0,0 km/h (0 Bft) 100,00 %
13.12.2020 16:14 7,8 C 7,2 C 5,5 C 84 % 1011,3 hPa 0,0 l/m 0 min 0 min 5 W/m 3,2 km/h (1 Bft) 100,00 %
13.12.2020 16:16 7,8 C 6,7 C 5,5 C 84 % 1011,3 hPa 0,0 l/m 0 min 0 min 4 W/m 0,0 km/h (0 Bft) 97,87 %
13.12.2020 16:18 7,8 C 6,7 C 5,5 C 84 % 1011,2 hPa 0,0 l/m 0 min 0 min 0 W/m 0,0 km/h (0 Bft) 100,00 %
13.12.2020 16:20 7,7 C 6,7 C 5,5 C 85 % 1011,2 hPa 0,0 l/m 0 min 0 min 0 W/m 0,0 km/h (0 Bft) 97,87 %
13.12.2020 16:22 7,7 C 6,7 C 5,5 C 85 % 1011,1 hPa 0,0 l/m 0 min 0 min 0 W/m 0,0 km/h (0 Bft) 97,87 %
13.12.2020 16:24 7,6 C 6,7 C 5,5 C 85 % 1011,2 hPa 0,0 l/m 0 min 0 min 0 W/m 0,0 km/h (0 Bft) 100,00 %
13.12.2020 16:26 7,6 C 6,7 C 4,9 C 85 % 1011,1 hPa 0,0 l/m 0 min 0 min 0 W/m 0,0 km/h (0 Bft) 97,87 %
13.12.2020 16:28 7,6 C 6,7 C 4,9 C 85 % 1011,1 hPa 0,0 l/m 0 min 0 min 0 W/m 0,0 km/h (0 Bft) 100,00 %
13.12.2020 16:30 7,6 C 6,7 C 4,9 C 85 % 1011,1 hPa 0,0 l/m 0 min 0 min 0 W/m 16,1 km/h (3 Bft) 100,00 %
13.12.2020 16:32 7,5 C 6,7 C 4,9 C 85 % 1011,1 hPa 0,0 l/m 0 min 0 min 0 W/m 3,2 km/h (1 Bft) 100,00 %
13.12.2020 16:34 7,5 C 6,7 C 4,9 C 85 % 1011,0 hPa 0,0 l/m 0 min 0 min 0 W/m 12,9 km/h (3 Bft) 95,74 %
13.12.2020 16:36 7,5 C 6,7 C 4,9 C 85 % 1011,1 hPa 0,0 l/m 0 min 0 min 0 W/m 0,0 km/h (0 Bft) 97,87 %
13.12.2020 16:38 7,4 C 6,1 C 4,9 C 85 % 1011,0 hPa 0,0 l/m 0 min 0 min 0 W/m 0,0 km/h (0 Bft) 100,00 %
13.12.2020 16:40 7,4 C 6,1 C 4,9 C 85 % 1011,0 hPa 0,0 l/m 0 min 0 min 0 W/m 0,0 km/h (0 Bft) 100,00 %
13.12.2020 16:42 7,4 C 6,1 C 4,9 C 85 % 1011,0 hPa 0,0 l/m 0 min 0 min 0 W/m 0,0 km/h (0 Bft) 97,83 %
13.12.2020 16:44 7,3 C 6,1 C 4,9 C 85 % 1011,0 hPa 0,0 l/m 0 min 0 min 0 W/m 0,0 km/h (0 Bft) 100,00 %
13.12.2020 16:46 7,3 C 6,1 C 4,4 C 85 % 1010,9 hPa 0,0 l/m 0 min 0 min 0 W/m 3,2 km/h (1 Bft) 97,87 %
13.12.2020 16:48 7,3 C 6,1 C 4,4 C 85 % 1010,9 hPa 0,0 l/m 0 min 0 min 0 W/m 3,2 km/h (1 Bft) 100,00 %
13.12.2020 16:50 7,2 C 6,1 C 4,4 C 86 % 1010,9 hPa 0,0 l/m 0 min 0 min 0 W/m 0,0 km/h (0 Bft) 100,00 %
13.12.2020 16:52 7,1 C 6,1 C 4,4 C 86 % 1010,8 hPa 0,0 l/m 0 min 0 min 0 W/m 0,0 km/h (0 Bft) 100,00 %
13.12.2020 16:54 7,1 C 6,1 C 4,4 C 86 % 1010,9 hPa 0,0 l/m 0 min 0 min 0 W/m 3,2 km/h (1 Bft) 97,83 %
13.12.2020 16:56 7,1 C 6,1 C 4,4 C 86 % 1010,8 hPa 0,0 l/m 0 min 0 min 0 W/m 0,0 km/h (0 Bft) 97,87 %
13.12.2020 16:58 7,0 C 6,1 C 4,4 C 86 % 1010,8 hPa 0,0 l/m 0 min 0 min 0 W/m 0,0 km/h (0 Bft) 95,74 %
13.12.2020 17:00 7,0 C 6,1 C 4,4 C 86 % 1010,9 hPa 0,0 l/m 0 min 0 min 0 W/m 0,0 km/h (0 Bft) 97,87 %
13.12.2020 17:02 6,9 C 6,1 C 4,4 C 86 % 1010,9 hPa 0,0 l/m 0 min 0 min 0 W/m 0,0 km/h (0 Bft) 95,74 %
13.12.2020 17:04 6,9 C 6,1 C 4,4 C 86 % 1010,8 hPa 0,0 l/m 0 min 0 min 0 W/m 3,2 km/h (1 Bft) 97,87 %
13.12.2020 17:06 6,9 C 5,6 C 4,4 C 86 % 1010,8 hPa 0,0 l/m 0 min 0 min 0 W/m 0,0 km/h (0 Bft) 97,83 %
13.12.2020 17:08 6,8 C 5,6 C 4,4 C 86 % 1010,8 hPa 0,0 l/m 0 min 0 min 0 W/m 0,0 km/h (0 Bft) 97,87 %
13.12.2020 17:10 6,8 C 5,6 C 4,4 C 86 % 1010,9 hPa 0,0 l/m 0 min 0 min 0 W/m 0,0 km/h (0 Bft) 95,74 %
13.12.2020 17:12 6,8 C 5,6 C 4,4 C 86 % 1010,9 hPa 0,0 l/m 0 min 0 min 0 W/m 3,2 km/h (1 Bft) 93,62 %
13.12.2020 17:14 6,7 C 5,6 C 4,4 C 86 % 1010,9 hPa 0,0 l/m 0 min 0 min 0 W/m 3,2 km/h (1 Bft) 93,62 %
13.12.2020 17:16 6,7 C 5,6 C 4,4 C 87 % 1010,8 hPa 0,0 l/m 0 min 0 min 0 W/m 0,0 km/h (0 Bft) 95,74 %
13.12.2020 17:18 6,6 C 5,6 C 4,4 C 87 % 1010,8 hPa 0,0 l/m 0 min 0 min 0 W/m 3,2 km/h (1 Bft) 97,83 %
13.12.2020 17:20 6,6 C 5,6 C 4,4 C 87 % 1010,8 hPa 0,0 l/m 0 min 0 min 0 W/m 6,4 km/h (2 Bft) 95,74 %
13.12.2020 17:22 6,6 C 5,6 C 4,4 C 87 % 1010,7 hPa 0,0 l/m 0 min 0 min 0 W/m 3,2 km/h (1 Bft) 95,74 %
13.12.2020 17:24 6,6 C 5,6 C 4,4 C 87 % 1010,7 hPa 0,0 l/m 0 min 0 min 0 W/m 0,0 km/h (0 Bft) 95,74 %
13.12.2020 17:26 6,5 C 5,6 C 4,4 C 87 % 1010,8 hPa 0,0 l/m 0 min 0 min 0 W/m 0,0 km/h (0 Bft) 93,62 %
13.12.2020 17:28 6,5 C 5,6 C 4,4 C 87 % 1010,7 hPa 0,0 l/m 0 min 0 min 0 W/m 3,2 km/h (1 Bft) 93,62 %
13.12.2020 17:30 6,5 C 5,6 C 4,4 C 87 % 1010,8 hPa 0,0 l/m 0 min 0 min 0 W/m 0,0 km/h (0 Bft) 95,65 %
13.12.2020 17:32 6,5 C 5,6 C 4,4 C 87 % 1010,8 hPa 0,0 l/m 0 min 0 min 0 W/m 6,4 km/h (2 Bft) 93,62 %
13.12.2020 17:34 6,5 C 6,1 C 4,4 C 87 % 1010,8 hPa 0,0 l/m 0 min 0 min 0 W/m 3,2 km/h (1 Bft) 95,74 %
13.12.2020 17:36 6,4 C 6,1 C 4,4 C 87 % 1010,8 hPa 0,0 l/m 0 min 0 min 0 W/m 0,0 km/h (0 Bft) 95,74 %
13.12.2020 17:38 6,4 C 6,1 C 4,4 C 87 % 1010,8 hPa 0,0 l/m 0 min 0 min 0 W/m 6,4 km/h (2 Bft) 95,74 %
13.12.2020 17:40 6,4 C 6,1 C 4,4 C 87 % 1010,8 hPa 0,0 l/m 0 min 0 min 0 W/m 0,0 km/h (0 Bft) 97,87 %
13.12.2020 17:42 6,4 C 6,1 C 4,4 C 87 % 1010,8 hPa 0,0 l/m 0 min 0 min 0 W/m 3,2 km/h (1 Bft) 97,96 %
13.12.2020 17:44 6,4 C 6,1 C 4,4 C 87 % 1010,8 hPa 0,0 l/m 0 min 0 min 0 W/m 0,0 km/h (0 Bft) 97,87 %
13.12.2020 17:46 6,4 C 5,6 C 4,4 C 87 % 1010,9 hPa 0,0 l/m 0 min 0 min 0 W/m 0,0 km/h (0 Bft) 97,87 %
13.12.2020 17:48 6,4 C 6,1 C 4,4 C 87 % 1010,8 hPa 0,0 l/m 0 min 0 min 0 W/m 3,2 km/h (1 Bft) 95,74 %
13.12.2020 17:50 6,4 C 6,1 C 4,4 C 87 % 1010,8 hPa 0,0 l/m 0 min 0 min 0 W/m 3,2 km/h (1 Bft) 97,87 %
13.12.2020 17:52 6,4 C 6,1 C 4,4 C 87 % 1010,8 hPa 0,0 l/m 0 min 0 min 0 W/m 6,4 km/h (2 Bft) 97,87 %
13.12.2020 17:54 6,4 C 6,1 C 4,4 C 87 % 1010,8 hPa 0,0 l/m 0 min 0 min 0 W/m 0,0 km/h (0 Bft) 95,65 %
13.12.2020 17:56 6,4 C 5,6 C 4,4 C 88 % 1010,8 hPa 0,0 l/m 0 min 0 min 0 W/m 3,2 km/h (1 Bft) 97,87 %
13.12.2020 17:58 6,4 C 6,1 C 4,4 C 88 % 1010,7 hPa 0,0 l/m 0 min 0 min 0 W/m 0,0 km/h (0 Bft) 97,87 %
13.12.2020 18:00 6,4 C 6,1 C 4,4 C 88 % 1010,7 hPa 0,0 l/m 0 min 0 min 0 W/m 3,2 km/h (1 Bft) 100,00 %
13.12.2020 18:02 6,4 C 6,1 C 4,4 C 87 % 1010,8 hPa 0,0 l/m 0 min 0 min 0 W/m 3,2 km/h (1 Bft) 100,00 %
13.12.2020 18:04 6,4 C 6,1 C 4,4 C 87 % 1010,8 hPa 0,0 l/m 0 min 0 min 0 W/m 19,3 km/h (3 Bft) 100,00 %
13.12.2020 18:07 6,4 C 6,1 C 4,4 C 87 % 1010,8 hPa 0,0 l/m 0 min 0 min 0 W/m 12,9 km/h (3 Bft) 100,00 %
13.12.2020 18:08 6,4 C 6,1 C 4,4 C 87 % 1010,8 hPa 0,0 l/m 0 min 0 min 0 W/m 6,4 km/h (2 Bft) 95,65 %
13.12.2020 18:10 6,4 C 6,1 C 4,4 C 87 % 1010,8 hPa 0,0 l/m 0 min 0 min 0 W/m 6,4 km/h (2 Bft) 100,00 %
13.12.2020 18:12 6,4 C 6,1 C 4,4 C 87 % 1010,8 hPa 0,0 l/m 0 min 0 min 0 W/m 3,2 km/h (1 Bft) 100,00 %
13.12.2020 18:14 6,4 C 6,1 C 4,4 C 87 % 1010,8 hPa 0,0 l/m 0 min 0 min 0 W/m 6,4 km/h (2 Bft) 100,00 %
13.12.2020 18:16 6,4 C 6,1 C 4,4 C 87 % 1010,7 hPa 0,0 l/m 0 min 0 min 0 W/m 3,2 km/h (1 Bft) 100,00 %
13.12.2020 18:18 6,4 C 6,1 C 4,4 C 87 % 1010,8 hPa 0,0 l/m 0 min 0 min 0 W/m 3,2 km/h (1 Bft) 97,87 %
13.12.2020 18:20 6,4 C 6,1 C 4,4 C 87 % 1010,7 hPa 0,0 l/m 0 min 0 min 0 W/m 19,3 km/h (3 Bft) 100,00 %
13.12.2020 18:22 6,4 C 6,1 C 4,4 C 87 % 1010,8 hPa 0,0 l/m 0 min 0 min 0 W/m 16,1 km/h (3 Bft) 97,87 %
13.12.2020 18:24 6,4 C 6,1 C 4,4 C 87 % 1010,8 hPa 0,0 l/m 0 min 0 min 0 W/m 6,4 km/h (2 Bft) 100,00 %
13.12.2020 18:26 6,4 C 6,1 C 4,4 C 87 % 1010,7 hPa 0,0 l/m 0 min 0 min 0 W/m 3,2 km/h (1 Bft) 100,00 %
13.12.2020 18:28 6,4 C 6,1 C 4,4 C 87 % 1010,6 hPa 0,0 l/m 0 min 0 min 0 W/m 22,5 km/h (4 Bft) 100,00 %
13.12.2020 18:30 6,4 C 6,1 C 4,4 C 86 % 1010,6 hPa 0,0 l/m 0 min 0 min 0 W/m 12,9 km/h (3 Bft) 100,00 %
13.12.2020 18:32 6,4 C 6,1 C 4,4 C 86 % 1010,6 hPa 0,0 l/m 0 min 0 min 0 W/m 6,4 km/h (2 Bft) 97,87 %
13.12.2020 18:34 6,4 C 6,1 C 4,4 C 86 % 1010,6 hPa 0,0 l/m 0 min 0 min 0 W/m 12,9 km/h (3 Bft) 100,00 %
13.12.2020 18:36 6,4 C 6,1 C 4,4 C 86 % 1010,6 hPa 0,0 l/m 0 min 0 min 0 W/m 6,4 km/h (2 Bft) 100,00 %
13.12.2020 18:38 6,4 C 6,1 C 4,4 C 86 % 1010,5 hPa 0,0 l/m 0 min 0 min 0 W/m 16,1 km/h (3 Bft) 100,00 %
13.12.2020 18:40 6,4 C 6,1 C 4,4 C 86 % 1010,5 hPa 0,0 l/m 0 min 0 min 0 W/m 6,4 km/h (2 Bft) 100,00 %
13.12.2020 18:42 6,4 C 6,1 C 4,4 C 86 % 1010,5 hPa 0,0 l/m 0 min 0 min 0 W/m 16,1 km/h (3 Bft) 100,00 %
13.12.2020 18:44 6,4 C 6,1 C 4,4 C 86 % 1010,4 hPa 0,0 l/m 0 min 0 min 0 W/m 9,7 km/h (2 Bft) 97,87 %
13.12.2020 18:46 6,4 C 6,1 C 4,4 C 86 % 1010,4 hPa 0,0 l/m 0 min 0 min 0 W/m 22,5 km/h (4 Bft) 100,00 %
13.12.2020 18:48 6,4 C 6,1 C 4,4 C 86 % 1010,4 hPa 0,0 l/m 0 min 0 min 0 W/m 6,4 km/h (2 Bft) 97,87 %
13.12.2020 18:50 6,4 C 6,1 C 4,4 C 86 % 1010,4 hPa 0,0 l/m 0 min 0 min 0 W/m 3,2 km/h (1 Bft) 100,00 %
13.12.2020 18:52 6,4 C 6,1 C 4,4 C 86 % 1010,3 hPa 0,0 l/m 0 min 0 min 0 W/m 16,1 km/h (3 Bft) 100,00 %
13.12.2020 18:54 6,4 C 6,1 C 4,4 C 86 % 1010,3 hPa 0,0 l/m 0 min 0 min 0 W/m 12,9 km/h (3 Bft) 100,00 %
13.12.2020 18:56 6,4 C 6,1 C 4,4 C 86 % 1010,3 hPa 0,0 l/m 0 min 0 min 0 W/m 12,9 km/h (3 Bft) 97,87 %
13.12.2020 18:58 6,4 C 6,1 C 4,4 C 86 % 1010,3 hPa 0,0 l/m 0 min 0 min 0 W/m 12,9 km/h (3 Bft) 100,00 %
13.12.2020 19:00 6,4 C 6,1 C 4,4 C 86 % 1010,2 hPa 0,0 l/m 0 min 0 min 0 W/m 0,0 km/h (0 Bft) 48,72 %
13.12.2020 19:02 6,4 C 6,1 C 4,4 C 86 % 1010,2 hPa 0,0 l/m 0 min 0 min 0 W/m 19,3 km/h (3 Bft) 100,00 %
13.12.2020 19:04 6,4 C 6,1 C 4,4 C 86 % 1010,2 hPa 0,0 l/m 0 min 0 min 0 W/m 16,1 km/h (3 Bft) 100,00 %
13.12.2020 19:06 6,4 C 6,1 C 4,4 C 86 % 1010,2 hPa 0,0 l/m 0 min 0 min 0 W/m 3,2 km/h (1 Bft) 100,00 %
13.12.2020 19:08 6,4 C 6,1 C 4,4 C 85 % 1010,2 hPa 0,0 l/m 0 min 0 min 0 W/m 12,9 km/h (3 Bft) 100,00 %
13.12.2020 19:10 6,4 C 5,6 C 4,4 C 85 % 1010,2 hPa 0,0 l/m 0 min 0 min 0 W/m 3,2 km/h (1 Bft) 97,87 %
13.12.2020 19:12 6,4 C 5,6 C 4,4 C 85 % 1010,2 hPa 0,0 l/m 0 min 0 min 0 W/m 16,1 km/h (3 Bft) 100,00 %
13.12.2020 19:14 6,4 C 6,1 C 4,4 C 85 % 1010,2 hPa 0,0 l/m 0 min 0 min 0 W/m 12,9 km/h (3 Bft) 95,74 %
13.12.2020 19:16 6,4 C 6,1 C 4,4 C 85 % 1010,2 hPa 0,0 l/m 0 min 0 min 0 W/m 16,1 km/h (3 Bft) 97,83 %
13.12.2020 19:18 6,4 C 6,1 C 4,4 C 85 % 1010,2 hPa 0,0 l/m 0 min 0 min 0 W/m 16,1 km/h (3 Bft) 97,87 %
13.12.2020 19:20 6,4 C 5,6 C 4,4 C 85 % 1010,2 hPa 0,0 l/m 0 min 0 min 0 W/m 12,9 km/h (3 Bft) 97,87 %
13.12.2020 19:22 6,4 C 5,6 C 4,4 C 85 % 1010,3 hPa 0,0 l/m 0 min 0 min 0 W/m 12,9 km/h (3 Bft) 95,74 %
13.12.2020 19:24 6,4 C 5,6 C 4,4 C 85 % 1010,3 hPa 0,0 l/m 0 min 0 min 0 W/m 16,1 km/h (3 Bft) 97,87 %
13.12.2020 19:26 6,4 C 5,6 C 4,4 C 85 % 1010,3 hPa 0,0 l/m 0 min 0 min 0 W/m 3,2 km/h (1 Bft) 97,87 %
13.12.2020 19:28 6,4 C 5,6 C 4,4 C 85 % 1010,4 hPa 0,0 l/m 0 min 0 min 0 W/m 12,9 km/h (3 Bft) 95,65 %
13.12.2020 19:30 6,4 C 5,6 C 4,4 C 85 % 1010,4 hPa 0,0 l/m 0 min 0 min 0 W/m 12,9 km/h (3 Bft) 95,74 %
13.12.2020 19:32 6,4 C 5,6 C 4,4 C 85 % 1010,4 hPa 0,0 l/m 0 min 0 min 0 W/m 19,3 km/h (3 Bft) 93,62 %
13.12.2020 19:34 6,4 C 5,6 C 4,4 C 85 % 1010,5 hPa 0,0 l/m 0 min 0 min 0 W/m 12,9 km/h (3 Bft) 95,74 %
13.12.2020 19:36 6,3 C 5,6 C 4,4 C 85 % 1010,4 hPa 0,0 l/m 0 min 0 min 0 W/m 16,1 km/h (3 Bft) 97,37 %
13.12.2020 19:38 6,3 C 5,6 C 4,4 C 85 % 1010,4 hPa 0,0 l/m 0 min 0 min 0 W/m 16,1 km/h (3 Bft) 95,74 %
13.12.2020 19:40 6,3 C 5,6 C 4,4 C 85 % 1010,4 hPa 0,0 l/m 0 min 0 min 0 W/m 22,5 km/h (4 Bft) 95,74 %
13.12.2020 19:42 6,3 C 5,6 C 4,4 C 85 % 1010,5 hPa 0,0 l/m 0 min 0 min 0 W/m 16,1 km/h (3 Bft) 93,48 %
13.12.2020 19:44 6,3 C 5,6 C 4,4 C 85 % 1010,5 hPa 0,0 l/m 0 min 0 min 0 W/m 12,9 km/h (3 Bft) 96,00 %
13.12.2020 19:46 6,3 C 5,6 C 4,4 C 85 % 1010,5 hPa 0,0 l/m 0 min 0 min 0 W/m 12,9 km/h (3 Bft) 95,74 %
13.12.2020 19:48 6,3 C 5,6 C 4,4 C 85 % 1010,5 hPa 0,0 l/m 0 min 0 min 0 W/m 3,2 km/h (1 Bft) 95,74 %
13.12.2020 19:50 6,3 C 5,6 C 4,4 C 85 % 1010,5 hPa 0,0 l/m 0 min 0 min 0 W/m 3,2 km/h (1 Bft) 95,74 %
13.12.2020 19:52 6,3 C 5,6 C 3,8 C 85 % 1010,5 hPa 0,0 l/m 0 min 0 min 0 W/m 6,4 km/h (2 Bft) 95,65 %
13.12.2020 19:54 6,3 C 5,6 C 4,4 C 85 % 1010,4 hPa 0,0 l/m 0 min 0 min 0 W/m 19,3 km/h (3 Bft) 95,74 %
13.12.2020 19:56 6,3 C 5,6 C 4,4 C 85 % 1010,4 hPa 0,0 l/m 0 min 0 min 0 W/m 12,9 km/h (3 Bft) 93,62 %
13.12.2020 19:58 6,3 C 5,6 C 3,8 C 85 % 1010,4 hPa 0,0 l/m 0 min 0 min 0 W/m 3,2 km/h (1 Bft) 91,49 %
13.12.2020 20:00 6,3 C 5,6 C 3,8 C 85 % 1010,4 hPa 0,0 l/m 0 min 0 min 0 W/m 6,4 km/h (2 Bft) 93,62 %
13.12.2020 20:02 6,3 C 5,6 C 3,8 C 85 % 1010,4 hPa 0,0 l/m 0 min 0 min 0 W/m 3,2 km/h (1 Bft) 93,62 %
13.12.2020 20:04 6,3 C 5,6 C 3,8 C 85 % 1010,4 hPa 0,0 l/m 0 min 0 min 0 W/m 12,9 km/h (3 Bft) 93,48 %
13.12.2020 20:06 6,3 C 5,6 C 3,8 C 85 % 1010,3 hPa 0,0 l/m 0 min 0 min 0 W/m 6,4 km/h (2 Bft) 93,62 %
13.12.2020 20:08 6,3 C 5,6 C 3,8 C 85 % 1010,3 hPa 0,0 l/m 0 min 0 min 0 W/m 12,9 km/h (3 Bft) 87,23 %
13.12.2020 20:10 6,3 C 5,6 C 3,8 C 85 % 1010,3 hPa 0,0 l/m 0 min 0 min 0 W/m 12,9 km/h (3 Bft) 93,62 %
13.12.2020 20:12 6,3 C 5,6 C 3,8 C 85 % 1010,3 hPa 0,0 l/m 0 min 0 min 0 W/m 12,9 km/h (3 Bft) 93,62 %
13.12.2020 20:14 6,2 C 5,6 C 3,8 C 85 % 1010,3 hPa 0,0 l/m 0 min 0 min 0 W/m 16,1 km/h (3 Bft) 93,62 %
13.12.2020 20:16 6,2 C 5,6 C 3,8 C 86 % 1010,3 hPa 0,0 l/m 0 min 0 min 0 W/m 3,2 km/h (1 Bft) 93,48 %
13.12.2020 20:18 6,2 C 5,6 C 3,8 C 86 % 1010,3 hPa 0,0 l/m 0 min 0 min 0 W/m 6,4 km/h (2 Bft) 47,37 %
13.12.2020 20:20 6,2 C 5,6 C 3,8 C 86 % 1010,2 hPa 0,0 l/m 0 min 0 min 0 W/m 6,4 km/h (2 Bft) 95,74 %
13.12.2020 20:22 6,1 C 5,6 C 3,8 C 86 % 1010,2 hPa 0,0 l/m 0 min 0 min 0 W/m 12,9 km/h (3 Bft) 97,87 %
13.12.2020 20:24 6,1 C 5,6 C 3,8 C 86 % 1010,2 hPa 0,0 l/m 0 min 0 min 0 W/m 16,1 km/h (3 Bft) 95,74 %
13.12.2020 20:26 6,1 C 5,6 C 3,8 C 86 % 1010,2 hPa 0,0 l/m 0 min 0 min 0 W/m 3,2 km/h (1 Bft) 91,49 %
13.12.2020 20:28 6,1 C 5,6 C 3,8 C 86 % 1010,2 hPa 0,0 l/m 0 min 0 min 0 W/m 16,1 km/h (3 Bft) 93,48 %
13.12.2020 20:30 6,1 C 5,6 C 3,8 C 86 % 1010,3 hPa 0,0 l/m 0 min 0 min 0 W/m 16,1 km/h (3 Bft) 95,74 %
13.12.2020 20:32 6,1 C 5,6 C 3,8 C 86 % 1010,2 hPa 0,0 l/m 0 min 0 min 0 W/m 3,2 km/h (1 Bft) 95,74 %
13.12.2020 20:34 6,1 C 5,6 C 3,8 C 86 % 1010,2 hPa 0,0 l/m 0 min 0 min 0 W/m 6,4 km/h (2 Bft) 95,74 %
13.12.2020 20:36 6,1 C 5,6 C 3,8 C 86 % 1010,2 hPa 0,0 l/m 0 min 0 min 0 W/m 12,9 km/h (3 Bft) 95,74 %
13.12.2020 20:38 6,1 C 5,6 C 3,8 C 86 % 1010,2 hPa 0,0 l/m 0 min 0 min 0 W/m 9,7 km/h (2 Bft) 95,74 %
13.12.2020 20:40 6,1 C 5,6 C 3,8 C 86 % 1010,2 hPa 0,0 l/m 0 min 0 min 0 W/m 3,2 km/h (1 Bft) 95,65 %
13.12.2020 20:42 6,1 C 5,6 C 3,8 C 86 % 1010,2 hPa 0,0 l/m 0 min 0 min 0 W/m 3,2 km/h (1 Bft) 93,62 %
13.12.2020 20:44 6,1 C 5,6 C 3,8 C 86 % 1010,1 hPa 0,0 l/m 0 min 0 min 0 W/m 3,2 km/h (1 Bft) 97,87 %
13.12.2020 20:46 6,1 C 5,6 C 3,8 C 86 % 1010,1 hPa 0,0 l/m 0 min 0 min 0 W/m 6,4 km/h (2 Bft) 95,74 %
13.12.2020 20:48 6,1 C 5,6 C 3,8 C 87 % 1010,0 hPa 0,0 l/m 0 min 0 min 0 W/m 6,4 km/h (2 Bft) 97,87 %
13.12.2020 20:50 6,0 C 5,6 C 3,8 C 87 % 1009,9 hPa 0,0 l/m 0 min 0 min 0 W/m 3,2 km/h (1 Bft) 97,87 %
13.12.2020 20:52 6,0 C 5,6 C 3,8 C 87 % 1009,8 hPa 0,0 l/m 0 min 0 min 0 W/m 12,9 km/h (3 Bft) 97,83 %
13.12.2020 20:54 6,0 C 5,6 C 3,8 C 87 % 1009,7 hPa 0,0 l/m 0 min 0 min 0 W/m 3,2 km/h (1 Bft) 97,87 %
13.12.2020 20:56 6,0 C 5,6 C 3,8 C 87 % 1009,7 hPa 0,0 l/m 0 min 0 min 0 W/m 12,9 km/h (3 Bft) 97,87 %
13.12.2020 20:58 6,0 C 5,6 C 3,8 C 87 % 1009,7 hPa 0,0 l/m 0 min 0 min 0 W/m 0,0 km/h (0 Bft) 100,00 %
13.12.2020 21:00 6,0 C 5,6 C 3,8 C 87 % 1009,7 hPa 0,0 l/m 0 min 0 min 0 W/m 12,9 km/h (3 Bft) 100,00 %
13.12.2020 21:02 6,0 C 5,6 C 3,8 C 87 % 1009,7 hPa 0,0 l/m 0 min 0 min 0 W/m 0,0 km/h (0 Bft) 100,00 %
13.12.2020 21:04 6,0 C 5,0 C 3,8 C 87 % 1009,7 hPa 0,0 l/m 0 min 0 min 0 W/m 3,2 km/h (1 Bft) 97,83 %
13.12.2020 21:06 6,0 C 5,0 C 3,8 C 87 % 1009,6 hPa 0,0 l/m 0 min 0 min 0 W/m 9,7 km/h (2 Bft) 93,62 %
13.12.2020 21:08 5,9 C 5,0 C 3,8 C 87 % 1009,6 hPa 0,0 l/m 0 min 0 min 0 W/m 6,4 km/h (2 Bft) 100,00 %
13.12.2020 21:10 5,9 C 5,0 C 3,8 C 87 % 1009,5 hPa 0,0 l/m 0 min 0 min 0 W/m 3,2 km/h (1 Bft) 100,00 %
13.12.2020 21:12 5,9 C 5,0 C 3,8 C 87 % 1009,5 hPa 0,0 l/m 0 min 0 min 0 W/m 12,9 km/h (3 Bft) 98,15 %
13.12.2020 21:14 5,9 C 5,0 C 3,3 C 87 % 1009,7 hPa 0,0 l/m 0 min 0 min 0 W/m 6,4 km/h (2 Bft) 100,00 %
13.12.2020 21:16 5,9 C 5,0 C 3,3 C 88 % 1009,8 hPa 0,0 l/m 0 min 0 min 0 W/m 12,9 km/h (3 Bft) 98,28 %
13.12.2020 21:18 5,8 C 5,0 C 3,3 C 88 % 1009,8 hPa 0,0 l/m 0 min 0 min 0 W/m 12,9 km/h (3 Bft) 100,00 %
13.12.2020 21:20 5,8 C 5,0 C 3,8 C 88 % 1009,8 hPa 0,0 l/m 0 min 0 min 0 W/m 3,2 km/h (1 Bft) 100,00 %
13.12.2020 21:22 5,8 C 5,0 C 3,8 C 88 % 1009,8 hPa 0,0 l/m 0 min 0 min 0 W/m 6,4 km/h (2 Bft) 97,87 %
13.12.2020 21:24 5,8 C 5,0 C 3,8 C 88 % 1009,9 hPa 0,0 l/m 0 min 0 min 0 W/m 6,4 km/h (2 Bft) 97,83 %
13.12.2020 21:26 5,8 C 5,0 C 3,8 C 88 % 1009,9 hPa 0,0 l/m 0 min 0 min 0 W/m 12,9 km/h (3 Bft) 100,00 %
13.12.2020 21:28 5,8 C 5,0 C 3,8 C 88 % 1009,9 hPa 0,0 l/m 0 min 0 min 0 W/m 6,4 km/h (2 Bft) 100,00 %
13.12.2020 21:30 5,8 C 5,6 C 3,8 C 88 % 1009,9 hPa 0,0 l/m 0 min 0 min 0 W/m 25,7 km/h (4 Bft) 100,00 %
13.12.2020 21:32 5,8 C 5,6 C 3,8 C 88 % 1009,8 hPa 0,0 l/m 0 min 0 min 0 W/m 19,3 km/h (3 Bft) 97,96 %
13.12.2020 21:34 5,8 C 5,6 C 3,8 C 88 % 1009,8 hPa 0,0 l/m 0 min 0 min 0 W/m 12,9 km/h (3 Bft) 100,00 %
13.12.2020 21:36 5,8 C 5,6 C 3,8 C 88 % 1009,7 hPa 0,0 l/m 0 min 0 min 0 W/m 9,7 km/h (2 Bft) 100,00 %
13.12.2020 21:38 5,8 C 5,6 C 3,8 C 88 % 1009,8 hPa 0,0 l/m 0 min 0 min 0 W/m 16,1 km/h (3 Bft) 100,00 %
13.12.2020 21:40 5,8 C 5,6 C 3,8 C 88 % 1009,8 hPa 0,0 l/m 0 min 0 min 0 W/m 6,4 km/h (2 Bft) 100,00 %
13.12.2020 21:42 5,8 C 5,6 C 3,8 C 88 % 1009,8 hPa 0,0 l/m 0 min 0 min 0 W/m 6,4 km/h (2 Bft) 100,00 %
13.12.2020 21:44 5,8 C 5,0 C 3,8 C 88 % 1009,7 hPa 0,0 l/m 0 min 0 min 0 W/m 16,1 km/h (3 Bft) 97,96 %
13.12.2020 21:46 5,8 C 5,0 C 3,8 C 88 % 1009,7 hPa 0,0 l/m 0 min 0 min 0 W/m 12,9 km/h (3 Bft) 100,00 %
13.12.2020 21:48 5,8 C 5,0 C 3,8 C 88 % 1009,7 hPa 0,0 l/m 0 min 0 min 0 W/m 6,4 km/h (2 Bft) 100,00 %
13.12.2020 21:50 5,8 C 5,0 C 3,8 C 88 % 1009,7 hPa 0,0 l/m 0 min 0 min 0 W/m 19,3 km/h (3 Bft) 97,83 %
13.12.2020 21:52 5,8 C 5,0 C 3,8 C 88 % 1009,7 hPa 0,0 l/m 0 min 0 min 0 W/m 12,9 km/h (3 Bft) 97,87 %
13.12.2020 21:54 5,8 C 5,0 C 3,8 C 88 % 1009,7 hPa 0,0 l/m 0 min 0 min 0 W/m 6,4 km/h (2 Bft) 100,00 %
13.12.2020 21:56 5,8 C 5,0 C 3,8 C 88 % 1009,8 hPa 0,0 l/m 0 min 0 min 0 W/m 3,2 km/h (1 Bft) 100,00 %
13.12.2020 21:58 5,8 C 5,0 C 3,8 C 88 % 1009,7 hPa 0,0 l/m 0 min 0 min 0 W/m 16,1 km/h (3 Bft) 95,74 %
13.12.2020 22:00 5,8 C 5,0 C 3,8 C 88 % 1009,8 hPa 0,0 l/m 0 min 0 min 0 W/m 12,9 km/h (3 Bft) 97,87 %
13.12.2020 22:02 5,8 C 5,6 C 3,8 C 88 % 1009,8 hPa 0,0 l/m 0 min 0 min 0 W/m 3,2 km/h (1 Bft) 100,00 %
13.12.2020 22:04 5,8 C 5,6 C 3,8 C 88 % 1009,9 hPa 0,0 l/m 0 min 0 min 0 W/m 6,4 km/h (2 Bft) 100,00 %
13.12.2020 22:06 5,8 C 5,6 C 3,8 C 88 % 1009,8 hPa 0,0 l/m 0 min 0 min 0 W/m 16,1 km/h (3 Bft) 100,00 %
13.12.2020 22:08 5,8 C 5,0 C 3,8 C 88 % 1009,7 hPa 0,0 l/m 0 min 0 min 0 W/m 3,2 km/h (1 Bft) 97,87 %
13.12.2020 22:10 5,8 C 5,0 C 3,8 C 88 % 1009,6 hPa 0,0 l/m 0 min 0 min 0 W/m 12,9 km/h (3 Bft) 97,87 %
13.12.2020 22:12 5,8 C 5,0 C 3,8 C 88 % 1009,5 hPa 0,0 l/m 0 min 0 min 0 W/m 3,2 km/h (1 Bft) 91,49 %
13.12.2020 22:14 5,8 C 5,0 C 3,8 C 88 % 1009,4 hPa 0,0 l/m 0 min 0 min 0 W/m 3,2 km/h (1 Bft) 97,83 %
13.12.2020 22:16 5,8 C 5,0 C 3,8 C 88 % 1009,4 hPa 0,0 l/m 0 min 0 min 0 W/m 6,4 km/h (2 Bft) 95,74 %
13.12.2020 22:18 5,8 C 5,0 C 3,8 C 88 % 1009,2 hPa 0,0 l/m 0 min 0 min 0 W/m 19,3 km/h (3 Bft) 97,87 %
13.12.2020 22:20 5,8 C 5,0 C 3,8 C 88 % 1009,1 hPa 0,0 l/m 0 min 0 min 0 W/m 6,4 km/h (2 Bft) 95,74 %
13.12.2020 22:22 5,8 C 5,0 C 3,8 C 88 % 1009,2 hPa 0,0 l/m 0 min 0 min 0 W/m 6,4 km/h (2 Bft) 97,87 %
13.12.2020 22:24 5,7 C 5,0 C 3,8 C 88 % 1009,2 hPa 0,0 l/m 0 min 0 min 0 W/m 6,4 km/h (2 Bft) 97,87 %
13.12.2020 22:26 5,7 C 5,0 C 3,8 C 88 % 1009,2 hPa 0,0 l/m 0 min 0 min 0 W/m 6,4 km/h (2 Bft) 97,83 %
13.12.2020 22:28 5,7 C 5,0 C 3,8 C 88 % 1009,2 hPa 0,0 l/m 0 min 0 min 0 W/m 12,9 km/h (3 Bft) 97,87 %
13.12.2020 22:30 5,7 C 5,0 C 3,8 C 89 % 1009,2 hPa 0,0 l/m 0 min 0 min 0 W/m 12,9 km/h (3 Bft) 97,87 %
13.12.2020 22:32 5,7 C 5,0 C 3,8 C 89 % 1009,2 hPa 0,0 l/m 0 min 0 min 0 W/m 12,9 km/h (3 Bft) 97,87 %
13.12.2020 22:34 5,7 C 5,0 C 3,8 C 89 % 1009,1 hPa 0,0 l/m 0 min 0 min 0 W/m 16,1 km/h (3 Bft) 97,87 %
13.12.2020 22:36 5,7 C 5,0 C 3,8 C 89 % 1009,1 hPa 0,0 l/m 0 min 0 min 0 W/m 9,7 km/h (2 Bft) 97,87 %
13.12.2020 22:38 5,7 C 5,0 C 3,8 C 89 % 1009,1 hPa 0,0 l/m 0 min 0 min 0 W/m 12,9 km/h (3 Bft) 97,83 %
13.12.2020 22:40 5,7 C 5,6 C 3,8 C 89 % 1009,1 hPa 0,0 l/m 0 min 0 min 0 W/m 12,9 km/h (3 Bft) 97,87 %
13.12.2020 22:42 5,7 C 5,6 C 3,8 C 89 % 1009,1 hPa 0,0 l/m 0 min 0 min 0 W/m 12,9 km/h (3 Bft) 97,87 %
13.12.2020 22:44 5,8 C 5,6 C 3,8 C 89 % 1009,0 hPa 0,0 l/m 0 min 0 min 0 W/m 3,2 km/h (1 Bft) 97,87 %
13.12.2020 22:46 5,8 C 5,6 C 3,8 C 89 % 1009,0 hPa 0,0 l/m 0 min 0 min 0 W/m 16,1 km/h (3 Bft) 93,62 %
13.12.2020 22:48 5,8 C 5,6 C 3,8 C 89 % 1009,1 hPa 0,0 l/m 0 min 0 min 0 W/m 9,7 km/h (2 Bft) 95,74 %
13.12.2020 22:50 5,8 C 5,6 C 3,8 C 89 % 1009,2 hPa 0,0 l/m 0 min 0 min 0 W/m 3,2 km/h (1 Bft) 97,83 %
13.12.2020 22:52 5,8 C 5,6 C 3,8 C 89 % 1009,1 hPa 0,0 l/m 0 min 0 min 0 W/m 6,4 km/h (2 Bft) 97,87 %
13.12.2020 22:54 5,8 C 5,6 C 3,8 C 89 % 1009,2 hPa 0,0 l/m 0 min 0 min 0 W/m 12,9 km/h (3 Bft) 95,74 %
13.12.2020 22:56 5,8 C 5,6 C 3,8 C 89 % 1009,1 hPa 0,0 l/m 0 min 0 min 0 W/m 16,1 km/h (3 Bft) 97,87 %
13.12.2020 22:58 5,9 C 5,6 C 3,8 C 89 % 1009,1 hPa 0,0 l/m 0 min 0 min 0 W/m 3,2 km/h (1 Bft) 97,87 %
13.12.2020 23:00 5,9 C 5,6 C 3,8 C 89 % 1009,1 hPa 0,0 l/m 0 min 0 min 0 W/m 3,2 km/h (1 Bft) 95,74 %
13.12.2020 23:02 5,9 C 5,6 C 3,8 C 89 % 1009,1 hPa 0,0 l/m 0 min 0 min 0 W/m 12,9 km/h (3 Bft) 95,65 %
13.12.2020 23:04 5,9 C 5,6 C 3,8 C 89 % 1009,1 hPa 0,0 l/m 0 min 0 min 0 W/m 16,1 km/h (3 Bft) 97,87 %
13.12.2020 23:06 5,9 C 5,6 C 3,8 C 89 % 1009,2 hPa 0,0 l/m 0 min 0 min 0 W/m 6,4 km/h (2 Bft) 97,87 %
13.12.2020 23:08 5,9 C 5,6 C 3,8 C 89 % 1009,3 hPa 0,0 l/m 0 min 0 min 0 W/m 6,4 km/h (2 Bft) 97,87 %
13.12.2020 23:10 5,9 C 5,6 C 3,8 C 89 % 1009,3 hPa 0,0 l/m 0 min 0 min 0 W/m 3,2 km/h (1 Bft) 95,74 %
13.12.2020 23:12 5,9 C 5,6 C 3,8 C 89 % 1009,3 hPa 0,0 l/m 0 min 0 min 0 W/m 3,2 km/h (1 Bft) 97,87 %
13.12.2020 23:14 6,0 C 5,6 C 3,8 C 89 % 1009,3 hPa 0,0 l/m 0 min 0 min 0 W/m 19,3 km/h (3 Bft) 97,83 %
13.12.2020 23:16 5,9 C 5,6 C 3,8 C 89 % 1009,3 hPa 0,0 l/m 0 min 0 min 0 W/m 16,1 km/h (3 Bft) 97,87 %
13.12.2020 23:18 6,0 C 5,6 C 3,8 C 89 % 1009,2 hPa 0,0 l/m 0 min 0 min 0 W/m 16,1 km/h (3 Bft) 95,74 %
13.12.2020 23:20 6,0 C 5,6 C 3,8 C 88 % 1009,2 hPa 0,0 l/m 0 min 0 min 0 W/m 16,1 km/h (3 Bft) 95,74 %
13.12.2020 23:22 6,0 C 5,6 C 3,8 C 88 % 1009,0 hPa 0,0 l/m 0 min 0 min 0 W/m 19,3 km/h (3 Bft) 97,87 %
13.12.2020 23:24 6,0 C 5,6 C 3,8 C 88 % 1009,0 hPa 0,0 l/m 0 min 0 min 0 W/m 6,4 km/h (2 Bft) 97,87 %
13.12.2020 23:26 6,0 C 5,6 C 3,8 C 88 % 1008,9 hPa 0,0 l/m 0 min 0 min 0 W/m 3,2 km/h (1 Bft) 97,83 %
13.12.2020 23:28 6,0 C 5,6 C 3,8 C 89 % 1008,9 hPa 0,0 l/m 0 min 0 min 0 W/m 16,1 km/h (3 Bft) 95,74 %
13.12.2020 23:30 6,0 C 5,6 C 3,8 C 89 % 1008,9 hPa 0,0 l/m 0 min 0 min 0 W/m 6,4 km/h (2 Bft) 97,87 %
13.12.2020 23:32 6,0 C 5,6 C 3,8 C 89 % 1008,9 hPa 0,0 l/m 0 min 0 min 0 W/m 12,9 km/h (3 Bft) 97,87 %
13.12.2020 23:34 6,0 C 5,6 C 3,8 C 89 % 1009,0 hPa 0,0 l/m 0 min 0 min 0 W/m 6,4 km/h (2 Bft) 100,00 %
13.12.2020 23:36 6,0 C 5,6 C 3,8 C 89 % 1008,9 hPa 0,0 l/m 0 min 0 min 0 W/m 3,2 km/h (1 Bft) 100,00 %
13.12.2020 23:38 5,9 C 5,6 C 3,8 C 89 % 1009,0 hPa 0,0 l/m 0 min 0 min 0 W/m 3,2 km/h (1 Bft) 100,00 %
13.12.2020 23:40 5,9 C 5,0 C 3,8 C 89 % 1009,1 hPa 0,0 l/m 0 min 0 min 0 W/m 3,2 km/h (1 Bft) 100,00 %
13.12.2020 23:42 5,9 C 5,0 C 3,8 C 89 % 1009,1 hPa 0,0 l/m 0 min 0 min 0 W/m 6,4 km/h (2 Bft) 100,00 %
13.12.2020 23:44 5,9 C 5,6 C 3,8 C 89 % 1009,1 hPa 0,0 l/m 0 min 0 min 0 W/m 6,4 km/h (2 Bft) 100,00 %
13.12.2020 23:46 5,9 C 5,6 C 3,8 C 89 % 1009,0 hPa 0,0 l/m 0 min 0 min 0 W/m 12,9 km/h (3 Bft) 97,87 %
13.12.2020 23:48 5,9 C 5,0 C 3,8 C 89 % 1008,9 hPa 0,0 l/m 0 min 0 min 0 W/m 3,2 km/h (1 Bft) 100,00 %
13.12.2020 23:50 5,9 C 5,0 C 3,8 C 89 % 1008,8 hPa 0,0 l/m 0 min 0 min 0 W/m 3,2 km/h (1 Bft) 100,00 %
13.12.2020 23:52 5,9 C 5,0 C 3,8 C 89 % 1008,8 hPa 0,0 l/m 0 min 0 min 0 W/m 6,4 km/h (2 Bft) 100,00 %
13.12.2020 23:54 5,8 C 5,0 C 3,8 C 89 % 1008,7 hPa 0,0 l/m 0 min 0 min 0 W/m 3,2 km/h (1 Bft) 97,87 %
13.12.2020 23:56 5,8 C 5,0 C 3,8 C 89 % 1008,7 hPa 0,0 l/m 0 min 0 min 0 W/m 3,2 km/h (1 Bft) 100,00 %
13.12.2020 23:58 5,8 C 5,0 C 3,8 C 89 % 1008,7 hPa 0,0 l/m 0 min 0 min 0 W/m 6,4 km/h (2 Bft) 100,00 %
_ Min-Zeit 22:24 21:04 21:14 14:54 00:00 - - - - 00:08 20:18
Minimum _ 5,7 C 5,0 C 3,3 C 84 % 1004,7 hPa - - - - 0,0 km/h (0 Bft) 47,37 %
_ Max-Zeit 12:58 12:50 12:48 00:00 11:32 06:36 12:10 00:00 13:02 08:32 00:00
Maximum _ 9,0 C 13,9 C 10,5 C 100 % 1011,4 hPa 0,2 l/m 2 min 2 min 291 W/m 25,7 km/h
S-SO (4 Bft)
100,00 %
Durchschnitt _ 7,2 C 6,8 C 5,9 C 94 % 1009,3 hPa #0,6 l/m #53 min. #36 min. 68 W/m 6,6 km/h (2 Bft) 97,89 %
© 2020 W. Hausmann